<?xml version="1.0" encoding="UTF-8" standalone="no" ?>
<gpx xmlns="http://www.topografix.com/GPX/1/1" xmlns:xsi="http://www.w3.org/2001/XMLSchema-instance" xsi:schemaLocation="http://www.topografix.com/GPX/1/1 http://www.topografix.com/GPX/1/1/gpx.xsd" version="1.1" creator="VisuGPX - https://www.visugpx.com">
  <metadata>
    <name>Foulées Du Tram 2015</name>
    <desc><![CDATA[Nantes Foulées Du Tram 2015]]></desc>
  </metadata>
  <trk>
    <name><![CDATA[2015-10-11 15:04]]></name>
    <desc><![CDATA[<h1>OruxMaps</h1><br /><hr align="center" width="480" style="height: 2px; width: 517px"/><h2>Nom: 2015-10-11 15:04</h2><br /><p>Temps de départ: 10/11/2015 15:04</p><p>Temps d'arrivée: 10/11/2015 16:17</p><p>Distance: 14,4km (01:12)</p><p>Temps déplacement: 01:09</p><p>Vitesse moyenne: 11,8km/h</p><p>Vitesse moyenne: 12,4km/h</p><p>Vitess Max.: 18,3km/h</p><p>Altitude minimale: -10m</p><p>Altitude maximale: 41m</p><p>Vitesse d'élévation: 538,9m/h</p><p>Vitesse de descente: -541,4m/h</p><p>Gain Altitude: 244m</p><p>Perte Altitude: -253m</p><p>Temps d'élévation: 00:27</p><p>Temps de descente: 00:28</p><hr align="center" width="480" style="height: 2px; width: 517px"/>]]></desc>
    <trkseg>
      <trkpt lat="47.28545" lon="-1.55314">
        <ele>25.4</ele>
        <time>2015-10-11T13:04:18Z</time>
      </trkpt>
      <trkpt lat="47.28559" lon="-1.55332">
        <ele>22.6</ele>
        <time>2015-10-11T13:06:16Z</time>
      </trkpt>
      <trkpt lat="47.28559" lon="-1.55359">
        <ele>22.8</ele>
        <time>2015-10-11T13:06:31Z</time>
      </trkpt>
      <trkpt lat="47.28555" lon="-1.55386">
        <ele>22.9</ele>
        <time>2015-10-11T13:06:47Z</time>
      </trkpt>
      <trkpt lat="47.28557" lon="-1.55414">
        <ele>22.8</ele>
        <time>2015-10-11T13:06:59Z</time>
      </trkpt>
      <trkpt lat="47.28554" lon="-1.55443">
        <ele>22.5</ele>
        <time>2015-10-11T13:07:08Z</time>
      </trkpt>
      <trkpt lat="47.28557" lon="-1.55469">
        <ele>22.4</ele>
        <time>2015-10-11T13:07:15Z</time>
      </trkpt>
      <trkpt lat="47.28557" lon="-1.55497">
        <ele>22.1</ele>
        <time>2015-10-11T13:07:21Z</time>
      </trkpt>
      <trkpt lat="47.28558" lon="-1.55528">
        <ele>21.9</ele>
        <time>2015-10-11T13:07:28Z</time>
      </trkpt>
      <trkpt lat="47.28555" lon="-1.55557">
        <ele>21.5</ele>
        <time>2015-10-11T13:07:35Z</time>
      </trkpt>
      <trkpt lat="47.28555" lon="-1.55586">
        <ele>21.5</ele>
        <time>2015-10-11T13:07:43Z</time>
      </trkpt>
      <trkpt lat="47.28553" lon="-1.55615">
        <ele>21.7</ele>
        <time>2015-10-11T13:07:51Z</time>
      </trkpt>
      <trkpt lat="47.28556" lon="-1.55642">
        <ele>22.5</ele>
        <time>2015-10-11T13:08:00Z</time>
      </trkpt>
      <trkpt lat="47.28571" lon="-1.5566">
        <ele>23.4</ele>
        <time>2015-10-11T13:08:09Z</time>
      </trkpt>
      <trkpt lat="47.2859" lon="-1.55666">
        <ele>23.8</ele>
        <time>2015-10-11T13:08:17Z</time>
      </trkpt>
      <trkpt lat="47.28608" lon="-1.55675">
        <ele>26.9</ele>
        <time>2015-10-11T13:08:25Z</time>
      </trkpt>
      <trkpt lat="47.28628" lon="-1.55682">
        <ele>31.5</ele>
        <time>2015-10-11T13:08:34Z</time>
      </trkpt>
      <trkpt lat="47.28646" lon="-1.55687">
        <ele>33.6</ele>
        <time>2015-10-11T13:08:42Z</time>
      </trkpt>
      <trkpt lat="47.28666" lon="-1.55691">
        <ele>34.2</ele>
        <time>2015-10-11T13:08:50Z</time>
      </trkpt>
      <trkpt lat="47.28684" lon="-1.55698">
        <ele>34</ele>
        <time>2015-10-11T13:08:58Z</time>
      </trkpt>
      <trkpt lat="47.28703" lon="-1.55707">
        <ele>34.2</ele>
        <time>2015-10-11T13:09:05Z</time>
      </trkpt>
      <trkpt lat="47.28723" lon="-1.55707">
        <ele>33</ele>
        <time>2015-10-11T13:09:12Z</time>
      </trkpt>
      <trkpt lat="47.28742" lon="-1.55699">
        <ele>33</ele>
        <time>2015-10-11T13:09:19Z</time>
      </trkpt>
      <trkpt lat="47.28759" lon="-1.55684">
        <ele>34</ele>
        <time>2015-10-11T13:09:26Z</time>
      </trkpt>
      <trkpt lat="47.2878" lon="-1.55675">
        <ele>35.6</ele>
        <time>2015-10-11T13:09:32Z</time>
      </trkpt>
      <trkpt lat="47.28799" lon="-1.55665">
        <ele>35</ele>
        <time>2015-10-11T13:09:38Z</time>
      </trkpt>
      <trkpt lat="47.28818" lon="-1.55652">
        <ele>35.5</ele>
        <time>2015-10-11T13:09:45Z</time>
      </trkpt>
      <trkpt lat="47.28838" lon="-1.55644">
        <ele>34.7</ele>
        <time>2015-10-11T13:09:52Z</time>
      </trkpt>
      <trkpt lat="47.28857" lon="-1.5564">
        <ele>33.5</ele>
        <time>2015-10-11T13:09:58Z</time>
      </trkpt>
      <trkpt lat="47.28877" lon="-1.55634">
        <ele>34</ele>
        <time>2015-10-11T13:10:05Z</time>
      </trkpt>
      <trkpt lat="47.28896" lon="-1.55629">
        <ele>36.6</ele>
        <time>2015-10-11T13:10:12Z</time>
      </trkpt>
      <trkpt lat="47.28914" lon="-1.55623">
        <ele>38.5</ele>
        <time>2015-10-11T13:10:19Z</time>
      </trkpt>
      <trkpt lat="47.28932" lon="-1.55617">
        <ele>38.3</ele>
        <time>2015-10-11T13:10:26Z</time>
      </trkpt>
      <trkpt lat="47.28951" lon="-1.55608">
        <ele>38.4</ele>
        <time>2015-10-11T13:10:34Z</time>
      </trkpt>
      <trkpt lat="47.2897" lon="-1.55601">
        <ele>38.3</ele>
        <time>2015-10-11T13:10:40Z</time>
      </trkpt>
      <trkpt lat="47.28987" lon="-1.55592">
        <ele>36.7</ele>
        <time>2015-10-11T13:10:46Z</time>
      </trkpt>
      <trkpt lat="47.29005" lon="-1.55594">
        <ele>35.3</ele>
        <time>2015-10-11T13:10:53Z</time>
      </trkpt>
      <trkpt lat="47.29022" lon="-1.55587">
        <ele>34.1</ele>
        <time>2015-10-11T13:10:59Z</time>
      </trkpt>
      <trkpt lat="47.29042" lon="-1.55582">
        <ele>32.3</ele>
        <time>2015-10-11T13:11:06Z</time>
      </trkpt>
      <trkpt lat="47.2906" lon="-1.55575">
        <ele>33.4</ele>
        <time>2015-10-11T13:11:13Z</time>
      </trkpt>
      <trkpt lat="47.29078" lon="-1.55566">
        <ele>33.5</ele>
        <time>2015-10-11T13:11:20Z</time>
      </trkpt>
      <trkpt lat="47.29096" lon="-1.55554">
        <ele>34.1</ele>
        <time>2015-10-11T13:11:27Z</time>
      </trkpt>
      <trkpt lat="47.29113" lon="-1.55542">
        <ele>34.8</ele>
        <time>2015-10-11T13:11:34Z</time>
      </trkpt>
      <trkpt lat="47.2913" lon="-1.55526">
        <ele>34.6</ele>
        <time>2015-10-11T13:11:41Z</time>
      </trkpt>
      <trkpt lat="47.29148" lon="-1.55516">
        <ele>35.1</ele>
        <time>2015-10-11T13:11:47Z</time>
      </trkpt>
      <trkpt lat="47.29165" lon="-1.55504">
        <ele>35.8</ele>
        <time>2015-10-11T13:11:54Z</time>
      </trkpt>
      <trkpt lat="47.29183" lon="-1.55491">
        <ele>36.7</ele>
        <time>2015-10-11T13:12:01Z</time>
      </trkpt>
      <trkpt lat="47.292" lon="-1.55479">
        <ele>37.4</ele>
        <time>2015-10-11T13:12:08Z</time>
      </trkpt>
      <trkpt lat="47.29217" lon="-1.55468">
        <ele>37</ele>
        <time>2015-10-11T13:12:14Z</time>
      </trkpt>
      <trkpt lat="47.29236" lon="-1.5546">
        <ele>36.7</ele>
        <time>2015-10-11T13:12:20Z</time>
      </trkpt>
      <trkpt lat="47.29255" lon="-1.55449">
        <ele>37.8</ele>
        <time>2015-10-11T13:12:28Z</time>
      </trkpt>
      <trkpt lat="47.29273" lon="-1.55437">
        <ele>37.5</ele>
        <time>2015-10-11T13:12:34Z</time>
      </trkpt>
      <trkpt lat="47.29291" lon="-1.55425">
        <ele>38.2</ele>
        <time>2015-10-11T13:12:40Z</time>
      </trkpt>
      <trkpt lat="47.29308" lon="-1.55414">
        <ele>39</ele>
        <time>2015-10-11T13:12:48Z</time>
      </trkpt>
      <trkpt lat="47.29326" lon="-1.55407">
        <ele>40</ele>
        <time>2015-10-11T13:12:54Z</time>
      </trkpt>
      <trkpt lat="47.29346" lon="-1.55404">
        <ele>40.9</ele>
        <time>2015-10-11T13:13:00Z</time>
      </trkpt>
      <trkpt lat="47.29364" lon="-1.55397">
        <ele>40.1</ele>
        <time>2015-10-11T13:13:05Z</time>
      </trkpt>
      <trkpt lat="47.29382" lon="-1.55392">
        <ele>40.2</ele>
        <time>2015-10-11T13:13:10Z</time>
      </trkpt>
      <trkpt lat="47.29403" lon="-1.55388">
        <ele>41.1</ele>
        <time>2015-10-11T13:13:17Z</time>
      </trkpt>
      <trkpt lat="47.2942" lon="-1.55379">
        <ele>38.5</ele>
        <time>2015-10-11T13:13:22Z</time>
      </trkpt>
      <trkpt lat="47.29439" lon="-1.55373">
        <ele>37.9</ele>
        <time>2015-10-11T13:13:28Z</time>
      </trkpt>
      <trkpt lat="47.29459" lon="-1.55367">
        <ele>37.8</ele>
        <time>2015-10-11T13:13:35Z</time>
      </trkpt>
      <trkpt lat="47.29478" lon="-1.55361">
        <ele>39.1</ele>
        <time>2015-10-11T13:13:43Z</time>
      </trkpt>
      <trkpt lat="47.29495" lon="-1.55369">
        <ele>39.9</ele>
        <time>2015-10-11T13:13:49Z</time>
      </trkpt>
      <trkpt lat="47.29509" lon="-1.5539">
        <ele>40.6</ele>
        <time>2015-10-11T13:13:55Z</time>
      </trkpt>
      <trkpt lat="47.29522" lon="-1.5541">
        <ele>41</ele>
        <time>2015-10-11T13:14:01Z</time>
      </trkpt>
      <trkpt lat="47.29532" lon="-1.55437">
        <ele>39.6</ele>
        <time>2015-10-11T13:14:08Z</time>
      </trkpt>
      <trkpt lat="47.29541" lon="-1.55463">
        <ele>37.1</ele>
        <time>2015-10-11T13:14:14Z</time>
      </trkpt>
      <trkpt lat="47.29555" lon="-1.55484">
        <ele>36.4</ele>
        <time>2015-10-11T13:14:20Z</time>
      </trkpt>
      <trkpt lat="47.2957" lon="-1.55505">
        <ele>34.3</ele>
        <time>2015-10-11T13:14:26Z</time>
      </trkpt>
      <trkpt lat="47.29584" lon="-1.5552">
        <ele>32.2</ele>
        <time>2015-10-11T13:14:32Z</time>
      </trkpt>
      <trkpt lat="47.29601" lon="-1.55536">
        <ele>31.2</ele>
        <time>2015-10-11T13:14:39Z</time>
      </trkpt>
      <trkpt lat="47.2962" lon="-1.55544">
        <ele>31.4</ele>
        <time>2015-10-11T13:14:46Z</time>
      </trkpt>
      <trkpt lat="47.29638" lon="-1.55548">
        <ele>29.9</ele>
        <time>2015-10-11T13:14:53Z</time>
      </trkpt>
      <trkpt lat="47.29658" lon="-1.55543">
        <ele>28.5</ele>
        <time>2015-10-11T13:15:00Z</time>
      </trkpt>
      <trkpt lat="47.29674" lon="-1.55531">
        <ele>28.2</ele>
        <time>2015-10-11T13:15:07Z</time>
      </trkpt>
      <trkpt lat="47.29694" lon="-1.5552">
        <ele>27.6</ele>
        <time>2015-10-11T13:15:13Z</time>
      </trkpt>
      <trkpt lat="47.29711" lon="-1.55504">
        <ele>25.6</ele>
        <time>2015-10-11T13:15:19Z</time>
      </trkpt>
      <trkpt lat="47.29728" lon="-1.55493">
        <ele>24</ele>
        <time>2015-10-11T13:15:25Z</time>
      </trkpt>
      <trkpt lat="47.29745" lon="-1.5548">
        <ele>23.9</ele>
        <time>2015-10-11T13:15:31Z</time>
      </trkpt>
      <trkpt lat="47.29761" lon="-1.55466">
        <ele>23.5</ele>
        <time>2015-10-11T13:15:37Z</time>
      </trkpt>
      <trkpt lat="47.29779" lon="-1.55453">
        <ele>21.6</ele>
        <time>2015-10-11T13:15:44Z</time>
      </trkpt>
      <trkpt lat="47.29797" lon="-1.55438">
        <ele>22.5</ele>
        <time>2015-10-11T13:15:50Z</time>
      </trkpt>
      <trkpt lat="47.29815" lon="-1.55427">
        <ele>23.7</ele>
        <time>2015-10-11T13:15:57Z</time>
      </trkpt>
      <trkpt lat="47.29832" lon="-1.55412">
        <ele>24.7</ele>
        <time>2015-10-11T13:16:04Z</time>
      </trkpt>
      <trkpt lat="47.29848" lon="-1.55397">
        <ele>23.9</ele>
        <time>2015-10-11T13:16:09Z</time>
      </trkpt>
      <trkpt lat="47.29864" lon="-1.55384">
        <ele>23.5</ele>
        <time>2015-10-11T13:16:15Z</time>
      </trkpt>
      <trkpt lat="47.29882" lon="-1.55369">
        <ele>22.5</ele>
        <time>2015-10-11T13:16:21Z</time>
      </trkpt>
      <trkpt lat="47.29899" lon="-1.55354">
        <ele>21.7</ele>
        <time>2015-10-11T13:16:27Z</time>
      </trkpt>
      <trkpt lat="47.29916" lon="-1.55336">
        <ele>21.5</ele>
        <time>2015-10-11T13:16:34Z</time>
      </trkpt>
      <trkpt lat="47.29933" lon="-1.5532">
        <ele>22</ele>
        <time>2015-10-11T13:16:41Z</time>
      </trkpt>
      <trkpt lat="47.29947" lon="-1.55302">
        <ele>21</ele>
        <time>2015-10-11T13:16:47Z</time>
      </trkpt>
      <trkpt lat="47.29947" lon="-1.55275">
        <ele>21</ele>
        <time>2015-10-11T13:16:52Z</time>
      </trkpt>
      <trkpt lat="47.2994" lon="-1.55248">
        <ele>21</ele>
        <time>2015-10-11T13:16:57Z</time>
      </trkpt>
      <trkpt lat="47.29934" lon="-1.55223">
        <ele>22.2</ele>
        <time>2015-10-11T13:17:03Z</time>
      </trkpt>
      <trkpt lat="47.29932" lon="-1.55196">
        <ele>22.3</ele>
        <time>2015-10-11T13:17:10Z</time>
      </trkpt>
      <trkpt lat="47.29925" lon="-1.55171">
        <ele>21</ele>
        <time>2015-10-11T13:17:18Z</time>
      </trkpt>
      <trkpt lat="47.29927" lon="-1.55141">
        <ele>21</ele>
        <time>2015-10-11T13:17:25Z</time>
      </trkpt>
      <trkpt lat="47.29926" lon="-1.55112">
        <ele>21</ele>
        <time>2015-10-11T13:17:32Z</time>
      </trkpt>
      <trkpt lat="47.29918" lon="-1.55087">
        <ele>21.2</ele>
        <time>2015-10-11T13:17:37Z</time>
      </trkpt>
      <trkpt lat="47.29913" lon="-1.55057">
        <ele>21.8</ele>
        <time>2015-10-11T13:17:43Z</time>
      </trkpt>
      <trkpt lat="47.29896" lon="-1.55046">
        <ele>20.6</ele>
        <time>2015-10-11T13:17:50Z</time>
      </trkpt>
      <trkpt lat="47.29877" lon="-1.55061">
        <ele>19.5</ele>
        <time>2015-10-11T13:17:56Z</time>
      </trkpt>
      <trkpt lat="47.29859" lon="-1.55074">
        <ele>19.2</ele>
        <time>2015-10-11T13:18:02Z</time>
      </trkpt>
      <trkpt lat="47.29843" lon="-1.55063">
        <ele>19.1</ele>
        <time>2015-10-11T13:18:10Z</time>
      </trkpt>
      <trkpt lat="47.29828" lon="-1.55043">
        <ele>19.6</ele>
        <time>2015-10-11T13:18:17Z</time>
      </trkpt>
      <trkpt lat="47.29818" lon="-1.5502">
        <ele>20</ele>
        <time>2015-10-11T13:18:23Z</time>
      </trkpt>
      <trkpt lat="47.29805" lon="-1.54999">
        <ele>20.2</ele>
        <time>2015-10-11T13:18:28Z</time>
      </trkpt>
      <trkpt lat="47.29794" lon="-1.54975">
        <ele>20.4</ele>
        <time>2015-10-11T13:18:34Z</time>
      </trkpt>
      <trkpt lat="47.29786" lon="-1.54946">
        <ele>20.4</ele>
        <time>2015-10-11T13:18:41Z</time>
      </trkpt>
      <trkpt lat="47.29773" lon="-1.54923">
        <ele>20.3</ele>
        <time>2015-10-11T13:18:48Z</time>
      </trkpt>
      <trkpt lat="47.29759" lon="-1.54906">
        <ele>19.4</ele>
        <time>2015-10-11T13:18:54Z</time>
      </trkpt>
      <trkpt lat="47.29744" lon="-1.54887">
        <ele>18</ele>
        <time>2015-10-11T13:19:01Z</time>
      </trkpt>
      <trkpt lat="47.29736" lon="-1.54861">
        <ele>17.4</ele>
        <time>2015-10-11T13:19:08Z</time>
      </trkpt>
      <trkpt lat="47.29725" lon="-1.54836">
        <ele>17.4</ele>
        <time>2015-10-11T13:19:15Z</time>
      </trkpt>
      <trkpt lat="47.29716" lon="-1.54811">
        <ele>16.5</ele>
        <time>2015-10-11T13:19:21Z</time>
      </trkpt>
      <trkpt lat="47.29706" lon="-1.54788">
        <ele>15.7</ele>
        <time>2015-10-11T13:19:26Z</time>
      </trkpt>
      <trkpt lat="47.29695" lon="-1.54761">
        <ele>17</ele>
        <time>2015-10-11T13:19:32Z</time>
      </trkpt>
      <trkpt lat="47.29685" lon="-1.54739">
        <ele>17.1</ele>
        <time>2015-10-11T13:19:37Z</time>
      </trkpt>
      <trkpt lat="47.29678" lon="-1.54714">
        <ele>16.9</ele>
        <time>2015-10-11T13:19:42Z</time>
      </trkpt>
      <trkpt lat="47.29667" lon="-1.54688">
        <ele>16.1</ele>
        <time>2015-10-11T13:19:48Z</time>
      </trkpt>
      <trkpt lat="47.29652" lon="-1.54668">
        <ele>15.9</ele>
        <time>2015-10-11T13:19:54Z</time>
      </trkpt>
      <trkpt lat="47.29636" lon="-1.54656">
        <ele>15.7</ele>
        <time>2015-10-11T13:20:01Z</time>
      </trkpt>
      <trkpt lat="47.29618" lon="-1.54639">
        <ele>15.2</ele>
        <time>2015-10-11T13:20:07Z</time>
      </trkpt>
      <trkpt lat="47.29602" lon="-1.54621">
        <ele>14.5</ele>
        <time>2015-10-11T13:20:13Z</time>
      </trkpt>
      <trkpt lat="47.29584" lon="-1.54609">
        <ele>14.5</ele>
        <time>2015-10-11T13:20:19Z</time>
      </trkpt>
      <trkpt lat="47.29567" lon="-1.54598">
        <ele>14.3</ele>
        <time>2015-10-11T13:20:25Z</time>
      </trkpt>
      <trkpt lat="47.29551" lon="-1.54586">
        <ele>13.9</ele>
        <time>2015-10-11T13:20:31Z</time>
      </trkpt>
      <trkpt lat="47.29533" lon="-1.54573">
        <ele>13.5</ele>
        <time>2015-10-11T13:20:37Z</time>
      </trkpt>
      <trkpt lat="47.29515" lon="-1.54563">
        <ele>12.7</ele>
        <time>2015-10-11T13:20:42Z</time>
      </trkpt>
      <trkpt lat="47.29496" lon="-1.54552">
        <ele>11.8</ele>
        <time>2015-10-11T13:20:48Z</time>
      </trkpt>
      <trkpt lat="47.29477" lon="-1.54543">
        <ele>11.1</ele>
        <time>2015-10-11T13:20:55Z</time>
      </trkpt>
      <trkpt lat="47.29458" lon="-1.54537">
        <ele>10</ele>
        <time>2015-10-11T13:21:01Z</time>
      </trkpt>
      <trkpt lat="47.29437" lon="-1.54533">
        <ele>10.6</ele>
        <time>2015-10-11T13:21:07Z</time>
      </trkpt>
      <trkpt lat="47.29418" lon="-1.5453">
        <ele>10.3</ele>
        <time>2015-10-11T13:21:12Z</time>
      </trkpt>
      <trkpt lat="47.29398" lon="-1.54531">
        <ele>10.2</ele>
        <time>2015-10-11T13:21:17Z</time>
      </trkpt>
      <trkpt lat="47.29377" lon="-1.54525">
        <ele>10.9</ele>
        <time>2015-10-11T13:21:23Z</time>
      </trkpt>
      <trkpt lat="47.2936" lon="-1.54515">
        <ele>11.6</ele>
        <time>2015-10-11T13:21:29Z</time>
      </trkpt>
      <trkpt lat="47.29344" lon="-1.54501">
        <ele>12.2</ele>
        <time>2015-10-11T13:21:36Z</time>
      </trkpt>
      <trkpt lat="47.29326" lon="-1.54487">
        <ele>13.3</ele>
        <time>2015-10-11T13:21:42Z</time>
      </trkpt>
      <trkpt lat="47.2931" lon="-1.54473">
        <ele>13.8</ele>
        <time>2015-10-11T13:21:48Z</time>
      </trkpt>
      <trkpt lat="47.29295" lon="-1.54455">
        <ele>14.1</ele>
        <time>2015-10-11T13:21:54Z</time>
      </trkpt>
      <trkpt lat="47.2928" lon="-1.54437">
        <ele>14.9</ele>
        <time>2015-10-11T13:22:00Z</time>
      </trkpt>
      <trkpt lat="47.29265" lon="-1.54417">
        <ele>14.2</ele>
        <time>2015-10-11T13:22:06Z</time>
      </trkpt>
      <trkpt lat="47.29252" lon="-1.54399">
        <ele>14.5</ele>
        <time>2015-10-11T13:22:11Z</time>
      </trkpt>
      <trkpt lat="47.29239" lon="-1.54381">
        <ele>15.1</ele>
        <time>2015-10-11T13:22:16Z</time>
      </trkpt>
      <trkpt lat="47.29226" lon="-1.5436">
        <ele>15.6</ele>
        <time>2015-10-11T13:22:21Z</time>
      </trkpt>
      <trkpt lat="47.29209" lon="-1.54342">
        <ele>15.4</ele>
        <time>2015-10-11T13:22:27Z</time>
      </trkpt>
      <trkpt lat="47.29192" lon="-1.54326">
        <ele>15.3</ele>
        <time>2015-10-11T13:22:34Z</time>
      </trkpt>
      <trkpt lat="47.29175" lon="-1.54315">
        <ele>15.4</ele>
        <time>2015-10-11T13:22:40Z</time>
      </trkpt>
      <trkpt lat="47.29155" lon="-1.54305">
        <ele>13.9</ele>
        <time>2015-10-11T13:22:46Z</time>
      </trkpt>
      <trkpt lat="47.29137" lon="-1.54298">
        <ele>14.1</ele>
        <time>2015-10-11T13:22:52Z</time>
      </trkpt>
      <trkpt lat="47.29118" lon="-1.54292">
        <ele>13.3</ele>
        <time>2015-10-11T13:22:58Z</time>
      </trkpt>
      <trkpt lat="47.29099" lon="-1.54288">
        <ele>13.3</ele>
        <time>2015-10-11T13:23:04Z</time>
      </trkpt>
      <trkpt lat="47.29079" lon="-1.54278">
        <ele>12</ele>
        <time>2015-10-11T13:23:10Z</time>
      </trkpt>
      <trkpt lat="47.29061" lon="-1.54269">
        <ele>11.7</ele>
        <time>2015-10-11T13:23:16Z</time>
      </trkpt>
      <trkpt lat="47.29041" lon="-1.5426">
        <ele>11.1</ele>
        <time>2015-10-11T13:23:23Z</time>
      </trkpt>
      <trkpt lat="47.29024" lon="-1.54252">
        <ele>10.6</ele>
        <time>2015-10-11T13:23:29Z</time>
      </trkpt>
      <trkpt lat="47.29006" lon="-1.54238">
        <ele>7.7</ele>
        <time>2015-10-11T13:23:36Z</time>
      </trkpt>
      <trkpt lat="47.28988" lon="-1.54224">
        <ele>6.7</ele>
        <time>2015-10-11T13:23:42Z</time>
      </trkpt>
      <trkpt lat="47.28974" lon="-1.54205">
        <ele>6.6</ele>
        <time>2015-10-11T13:23:48Z</time>
      </trkpt>
      <trkpt lat="47.28959" lon="-1.54186">
        <ele>7.5</ele>
        <time>2015-10-11T13:23:55Z</time>
      </trkpt>
      <trkpt lat="47.28948" lon="-1.54161">
        <ele>7</ele>
        <time>2015-10-11T13:24:04Z</time>
      </trkpt>
      <trkpt lat="47.28934" lon="-1.54141">
        <ele>7.1</ele>
        <time>2015-10-11T13:24:11Z</time>
      </trkpt>
      <trkpt lat="47.28918" lon="-1.54126">
        <ele>8.3</ele>
        <time>2015-10-11T13:24:18Z</time>
      </trkpt>
      <trkpt lat="47.28901" lon="-1.54112">
        <ele>11.4</ele>
        <time>2015-10-11T13:24:25Z</time>
      </trkpt>
      <trkpt lat="47.28882" lon="-1.54114">
        <ele>13.3</ele>
        <time>2015-10-11T13:24:31Z</time>
      </trkpt>
      <trkpt lat="47.28863" lon="-1.54113">
        <ele>14.5</ele>
        <time>2015-10-11T13:24:38Z</time>
      </trkpt>
      <trkpt lat="47.28843" lon="-1.54109">
        <ele>15</ele>
        <time>2015-10-11T13:24:45Z</time>
      </trkpt>
      <trkpt lat="47.28826" lon="-1.54104">
        <ele>14.5</ele>
        <time>2015-10-11T13:24:51Z</time>
      </trkpt>
      <trkpt lat="47.28807" lon="-1.54109">
        <ele>14.5</ele>
        <time>2015-10-11T13:24:57Z</time>
      </trkpt>
      <trkpt lat="47.28788" lon="-1.54117">
        <ele>14.3</ele>
        <time>2015-10-11T13:25:04Z</time>
      </trkpt>
      <trkpt lat="47.28771" lon="-1.54131">
        <ele>15.4</ele>
        <time>2015-10-11T13:25:10Z</time>
      </trkpt>
      <trkpt lat="47.28755" lon="-1.5415">
        <ele>14.6</ele>
        <time>2015-10-11T13:25:17Z</time>
      </trkpt>
      <trkpt lat="47.28742" lon="-1.54169">
        <ele>11.4</ele>
        <time>2015-10-11T13:25:23Z</time>
      </trkpt>
      <trkpt lat="47.28731" lon="-1.54193">
        <ele>9.3</ele>
        <time>2015-10-11T13:25:28Z</time>
      </trkpt>
      <trkpt lat="47.28723" lon="-1.54218">
        <ele>6.6</ele>
        <time>2015-10-11T13:25:33Z</time>
      </trkpt>
      <trkpt lat="47.28715" lon="-1.54243">
        <ele>4.9</ele>
        <time>2015-10-11T13:25:39Z</time>
      </trkpt>
      <trkpt lat="47.28705" lon="-1.54266">
        <ele>3.4</ele>
        <time>2015-10-11T13:25:45Z</time>
      </trkpt>
      <trkpt lat="47.28693" lon="-1.5429">
        <ele>2.6</ele>
        <time>2015-10-11T13:25:50Z</time>
      </trkpt>
      <trkpt lat="47.28682" lon="-1.54315">
        <ele>3.8</ele>
        <time>2015-10-11T13:25:56Z</time>
      </trkpt>
      <trkpt lat="47.28673" lon="-1.54341">
        <ele>3.9</ele>
        <time>2015-10-11T13:26:02Z</time>
      </trkpt>
      <trkpt lat="47.28664" lon="-1.54364">
        <ele>3.7</ele>
        <time>2015-10-11T13:26:08Z</time>
      </trkpt>
      <trkpt lat="47.28651" lon="-1.54384">
        <ele>4.9</ele>
        <time>2015-10-11T13:26:13Z</time>
      </trkpt>
      <trkpt lat="47.28641" lon="-1.54407">
        <ele>4.1</ele>
        <time>2015-10-11T13:26:18Z</time>
      </trkpt>
      <trkpt lat="47.28627" lon="-1.54431">
        <ele>3.3</ele>
        <time>2015-10-11T13:26:24Z</time>
      </trkpt>
      <trkpt lat="47.28615" lon="-1.54457">
        <ele>2.8</ele>
        <time>2015-10-11T13:26:30Z</time>
      </trkpt>
      <trkpt lat="47.28604" lon="-1.5448">
        <ele>2.4</ele>
        <time>2015-10-11T13:26:37Z</time>
      </trkpt>
      <trkpt lat="47.28596" lon="-1.54508">
        <ele>2.1</ele>
        <time>2015-10-11T13:26:44Z</time>
      </trkpt>
      <trkpt lat="47.28577" lon="-1.54514">
        <ele>2</ele>
        <time>2015-10-11T13:26:52Z</time>
      </trkpt>
      <trkpt lat="47.2856" lon="-1.54502">
        <ele>2</ele>
        <time>2015-10-11T13:26:58Z</time>
      </trkpt>
      <trkpt lat="47.2854" lon="-1.54493">
        <ele>2.3</ele>
        <time>2015-10-11T13:27:05Z</time>
      </trkpt>
      <trkpt lat="47.28521" lon="-1.54485">
        <ele>3.4</ele>
        <time>2015-10-11T13:27:12Z</time>
      </trkpt>
      <trkpt lat="47.28503" lon="-1.54475">
        <ele>4.3</ele>
        <time>2015-10-11T13:27:18Z</time>
      </trkpt>
      <trkpt lat="47.28485" lon="-1.54463">
        <ele>5.4</ele>
        <time>2015-10-11T13:27:24Z</time>
      </trkpt>
      <trkpt lat="47.28466" lon="-1.54452">
        <ele>6.6</ele>
        <time>2015-10-11T13:27:31Z</time>
      </trkpt>
      <trkpt lat="47.28448" lon="-1.54439">
        <ele>6.8</ele>
        <time>2015-10-11T13:27:38Z</time>
      </trkpt>
      <trkpt lat="47.28431" lon="-1.5443">
        <ele>7.7</ele>
        <time>2015-10-11T13:27:43Z</time>
      </trkpt>
      <trkpt lat="47.28413" lon="-1.54423">
        <ele>7.5</ele>
        <time>2015-10-11T13:27:48Z</time>
      </trkpt>
      <trkpt lat="47.28394" lon="-1.54416">
        <ele>8.1</ele>
        <time>2015-10-11T13:27:54Z</time>
      </trkpt>
      <trkpt lat="47.28374" lon="-1.54415">
        <ele>9.9</ele>
        <time>2015-10-11T13:28:00Z</time>
      </trkpt>
      <trkpt lat="47.28354" lon="-1.54419">
        <ele>12</ele>
        <time>2015-10-11T13:28:06Z</time>
      </trkpt>
      <trkpt lat="47.28335" lon="-1.54421">
        <ele>14.9</ele>
        <time>2015-10-11T13:28:12Z</time>
      </trkpt>
      <trkpt lat="47.28318" lon="-1.54408">
        <ele>16.6</ele>
        <time>2015-10-11T13:28:18Z</time>
      </trkpt>
      <trkpt lat="47.28307" lon="-1.54387">
        <ele>18.6</ele>
        <time>2015-10-11T13:28:24Z</time>
      </trkpt>
      <trkpt lat="47.28295" lon="-1.54362">
        <ele>20</ele>
        <time>2015-10-11T13:28:31Z</time>
      </trkpt>
      <trkpt lat="47.2829" lon="-1.54333">
        <ele>21.2</ele>
        <time>2015-10-11T13:28:38Z</time>
      </trkpt>
      <trkpt lat="47.28281" lon="-1.54308">
        <ele>23.1</ele>
        <time>2015-10-11T13:28:45Z</time>
      </trkpt>
      <trkpt lat="47.28274" lon="-1.5428">
        <ele>24.6</ele>
        <time>2015-10-11T13:28:53Z</time>
      </trkpt>
      <trkpt lat="47.28263" lon="-1.54253">
        <ele>25.9</ele>
        <time>2015-10-11T13:29:00Z</time>
      </trkpt>
      <trkpt lat="47.28255" lon="-1.54228">
        <ele>26.8</ele>
        <time>2015-10-11T13:29:06Z</time>
      </trkpt>
      <trkpt lat="47.28246" lon="-1.54201">
        <ele>28.3</ele>
        <time>2015-10-11T13:29:13Z</time>
      </trkpt>
      <trkpt lat="47.28238" lon="-1.54174">
        <ele>29.6</ele>
        <time>2015-10-11T13:29:21Z</time>
      </trkpt>
      <trkpt lat="47.28229" lon="-1.54147">
        <ele>31</ele>
        <time>2015-10-11T13:29:27Z</time>
      </trkpt>
      <trkpt lat="47.28226" lon="-1.5412">
        <ele>31.8</ele>
        <time>2015-10-11T13:29:34Z</time>
      </trkpt>
      <trkpt lat="47.28221" lon="-1.54094">
        <ele>32.5</ele>
        <time>2015-10-11T13:29:40Z</time>
      </trkpt>
      <trkpt lat="47.2822" lon="-1.54067">
        <ele>33.1</ele>
        <time>2015-10-11T13:29:47Z</time>
      </trkpt>
      <trkpt lat="47.28225" lon="-1.54035">
        <ele>32.9</ele>
        <time>2015-10-11T13:29:51Z</time>
      </trkpt>
      <trkpt lat="47.28222" lon="-1.54006">
        <ele>33.3</ele>
        <time>2015-10-11T13:29:56Z</time>
      </trkpt>
      <trkpt lat="47.28217" lon="-1.53977">
        <ele>34.3</ele>
        <time>2015-10-11T13:30:02Z</time>
      </trkpt>
      <trkpt lat="47.28209" lon="-1.5395">
        <ele>33.6</ele>
        <time>2015-10-11T13:30:09Z</time>
      </trkpt>
      <trkpt lat="47.28201" lon="-1.53923">
        <ele>32.3</ele>
        <time>2015-10-11T13:30:16Z</time>
      </trkpt>
      <trkpt lat="47.28195" lon="-1.53897">
        <ele>31.7</ele>
        <time>2015-10-11T13:30:22Z</time>
      </trkpt>
      <trkpt lat="47.28188" lon="-1.53872">
        <ele>31.4</ele>
        <time>2015-10-11T13:30:27Z</time>
      </trkpt>
      <trkpt lat="47.28178" lon="-1.53849">
        <ele>30.6</ele>
        <time>2015-10-11T13:30:33Z</time>
      </trkpt>
      <trkpt lat="47.28168" lon="-1.53823">
        <ele>30.2</ele>
        <time>2015-10-11T13:30:39Z</time>
      </trkpt>
      <trkpt lat="47.28159" lon="-1.53794">
        <ele>28.6</ele>
        <time>2015-10-11T13:30:45Z</time>
      </trkpt>
      <trkpt lat="47.2814" lon="-1.53784">
        <ele>25.9</ele>
        <time>2015-10-11T13:30:50Z</time>
      </trkpt>
      <trkpt lat="47.28123" lon="-1.53798">
        <ele>24.8</ele>
        <time>2015-10-11T13:30:56Z</time>
      </trkpt>
      <trkpt lat="47.28107" lon="-1.53812">
        <ele>24.2</ele>
        <time>2015-10-11T13:31:03Z</time>
      </trkpt>
      <trkpt lat="47.2809" lon="-1.5383">
        <ele>21.9</ele>
        <time>2015-10-11T13:31:10Z</time>
      </trkpt>
      <trkpt lat="47.28079" lon="-1.53852">
        <ele>21.7</ele>
        <time>2015-10-11T13:31:15Z</time>
      </trkpt>
      <trkpt lat="47.28067" lon="-1.53877">
        <ele>20.6</ele>
        <time>2015-10-11T13:31:21Z</time>
      </trkpt>
      <trkpt lat="47.28055" lon="-1.53903">
        <ele>19.4</ele>
        <time>2015-10-11T13:31:27Z</time>
      </trkpt>
      <trkpt lat="47.28042" lon="-1.53926">
        <ele>16.5</ele>
        <time>2015-10-11T13:31:34Z</time>
      </trkpt>
      <trkpt lat="47.28028" lon="-1.53947">
        <ele>13.7</ele>
        <time>2015-10-11T13:31:41Z</time>
      </trkpt>
      <trkpt lat="47.28013" lon="-1.53963">
        <ele>11.5</ele>
        <time>2015-10-11T13:31:47Z</time>
      </trkpt>
      <trkpt lat="47.27996" lon="-1.53977">
        <ele>10</ele>
        <time>2015-10-11T13:31:53Z</time>
      </trkpt>
      <trkpt lat="47.27979" lon="-1.53991">
        <ele>9</ele>
        <time>2015-10-11T13:31:59Z</time>
      </trkpt>
      <trkpt lat="47.27961" lon="-1.54005">
        <ele>9.7</ele>
        <time>2015-10-11T13:32:06Z</time>
      </trkpt>
      <trkpt lat="47.27944" lon="-1.54015">
        <ele>9.3</ele>
        <time>2015-10-11T13:32:13Z</time>
      </trkpt>
      <trkpt lat="47.27926" lon="-1.54025">
        <ele>8.6</ele>
        <time>2015-10-11T13:32:21Z</time>
      </trkpt>
      <trkpt lat="47.27906" lon="-1.54036">
        <ele>7.6</ele>
        <time>2015-10-11T13:32:27Z</time>
      </trkpt>
      <trkpt lat="47.27888" lon="-1.54039">
        <ele>7.3</ele>
        <time>2015-10-11T13:32:33Z</time>
      </trkpt>
      <trkpt lat="47.27866" lon="-1.54039">
        <ele>6.9</ele>
        <time>2015-10-11T13:32:40Z</time>
      </trkpt>
      <trkpt lat="47.27846" lon="-1.54034">
        <ele>7.5</ele>
        <time>2015-10-11T13:32:46Z</time>
      </trkpt>
      <trkpt lat="47.27829" lon="-1.54023">
        <ele>8.3</ele>
        <time>2015-10-11T13:32:51Z</time>
      </trkpt>
      <trkpt lat="47.27809" lon="-1.54027">
        <ele>7.3</ele>
        <time>2015-10-11T13:32:58Z</time>
      </trkpt>
      <trkpt lat="47.27797" lon="-1.54051">
        <ele>8.5</ele>
        <time>2015-10-11T13:33:05Z</time>
      </trkpt>
      <trkpt lat="47.27784" lon="-1.54071">
        <ele>8.9</ele>
        <time>2015-10-11T13:33:12Z</time>
      </trkpt>
      <trkpt lat="47.27766" lon="-1.54075">
        <ele>9.8</ele>
        <time>2015-10-11T13:33:17Z</time>
      </trkpt>
      <trkpt lat="47.27746" lon="-1.54076">
        <ele>11</ele>
        <time>2015-10-11T13:33:23Z</time>
      </trkpt>
      <trkpt lat="47.27728" lon="-1.54072">
        <ele>11.1</ele>
        <time>2015-10-11T13:33:29Z</time>
      </trkpt>
      <trkpt lat="47.27707" lon="-1.54072">
        <ele>11</ele>
        <time>2015-10-11T13:33:36Z</time>
      </trkpt>
      <trkpt lat="47.27689" lon="-1.54072">
        <ele>10.6</ele>
        <time>2015-10-11T13:33:42Z</time>
      </trkpt>
      <trkpt lat="47.27671" lon="-1.54065">
        <ele>10.4</ele>
        <time>2015-10-11T13:33:47Z</time>
      </trkpt>
      <trkpt lat="47.27651" lon="-1.54064">
        <ele>11.2</ele>
        <time>2015-10-11T13:33:54Z</time>
      </trkpt>
      <trkpt lat="47.27633" lon="-1.54061">
        <ele>12.3</ele>
        <time>2015-10-11T13:34:01Z</time>
      </trkpt>
      <trkpt lat="47.27613" lon="-1.54059">
        <ele>13.5</ele>
        <time>2015-10-11T13:34:07Z</time>
      </trkpt>
      <trkpt lat="47.27594" lon="-1.54062">
        <ele>14.6</ele>
        <time>2015-10-11T13:34:13Z</time>
      </trkpt>
      <trkpt lat="47.27574" lon="-1.54062">
        <ele>14.9</ele>
        <time>2015-10-11T13:34:20Z</time>
      </trkpt>
      <trkpt lat="47.27553" lon="-1.54065">
        <ele>14.6</ele>
        <time>2015-10-11T13:34:26Z</time>
      </trkpt>
      <trkpt lat="47.27534" lon="-1.54066">
        <ele>14.9</ele>
        <time>2015-10-11T13:34:32Z</time>
      </trkpt>
      <trkpt lat="47.27515" lon="-1.54064">
        <ele>15.2</ele>
        <time>2015-10-11T13:34:39Z</time>
      </trkpt>
      <trkpt lat="47.27496" lon="-1.54067">
        <ele>15.5</ele>
        <time>2015-10-11T13:34:45Z</time>
      </trkpt>
      <trkpt lat="47.27476" lon="-1.54073">
        <ele>16.1</ele>
        <time>2015-10-11T13:34:51Z</time>
      </trkpt>
      <trkpt lat="47.27457" lon="-1.54083">
        <ele>16.9</ele>
        <time>2015-10-11T13:34:57Z</time>
      </trkpt>
      <trkpt lat="47.27439" lon="-1.54079">
        <ele>16.9</ele>
        <time>2015-10-11T13:35:03Z</time>
      </trkpt>
      <trkpt lat="47.27424" lon="-1.54062">
        <ele>18.8</ele>
        <time>2015-10-11T13:35:09Z</time>
      </trkpt>
      <trkpt lat="47.27411" lon="-1.5404">
        <ele>20.1</ele>
        <time>2015-10-11T13:35:16Z</time>
      </trkpt>
      <trkpt lat="47.27401" lon="-1.54018">
        <ele>21.1</ele>
        <time>2015-10-11T13:35:22Z</time>
      </trkpt>
      <trkpt lat="47.27383" lon="-1.53999">
        <ele>20.9</ele>
        <time>2015-10-11T13:35:27Z</time>
      </trkpt>
      <trkpt lat="47.27368" lon="-1.53979">
        <ele>20.8</ele>
        <time>2015-10-11T13:35:33Z</time>
      </trkpt>
      <trkpt lat="47.27355" lon="-1.53955">
        <ele>20.7</ele>
        <time>2015-10-11T13:35:40Z</time>
      </trkpt>
      <trkpt lat="47.27348" lon="-1.53929">
        <ele>21.4</ele>
        <time>2015-10-11T13:35:47Z</time>
      </trkpt>
      <trkpt lat="47.27338" lon="-1.53904">
        <ele>21.6</ele>
        <time>2015-10-11T13:35:54Z</time>
      </trkpt>
      <trkpt lat="47.27329" lon="-1.53877">
        <ele>21.7</ele>
        <time>2015-10-11T13:35:59Z</time>
      </trkpt>
      <trkpt lat="47.27321" lon="-1.53853">
        <ele>21.8</ele>
        <time>2015-10-11T13:36:05Z</time>
      </trkpt>
      <trkpt lat="47.27309" lon="-1.53829">
        <ele>21.9</ele>
        <time>2015-10-11T13:36:12Z</time>
      </trkpt>
      <trkpt lat="47.27301" lon="-1.53805">
        <ele>22.3</ele>
        <time>2015-10-11T13:36:18Z</time>
      </trkpt>
      <trkpt lat="47.27291" lon="-1.53782">
        <ele>22.3</ele>
        <time>2015-10-11T13:36:23Z</time>
      </trkpt>
      <trkpt lat="47.27277" lon="-1.53763">
        <ele>22.2</ele>
        <time>2015-10-11T13:36:29Z</time>
      </trkpt>
      <trkpt lat="47.27264" lon="-1.53743">
        <ele>21.6</ele>
        <time>2015-10-11T13:36:35Z</time>
      </trkpt>
      <trkpt lat="47.2725" lon="-1.5372">
        <ele>21.3</ele>
        <time>2015-10-11T13:36:42Z</time>
      </trkpt>
      <trkpt lat="47.27238" lon="-1.53697">
        <ele>21.1</ele>
        <time>2015-10-11T13:36:49Z</time>
      </trkpt>
      <trkpt lat="47.27219" lon="-1.53694">
        <ele>20.1</ele>
        <time>2015-10-11T13:36:56Z</time>
      </trkpt>
      <trkpt lat="47.272" lon="-1.53701">
        <ele>19.2</ele>
        <time>2015-10-11T13:37:02Z</time>
      </trkpt>
      <trkpt lat="47.27184" lon="-1.53713">
        <ele>17</ele>
        <time>2015-10-11T13:37:08Z</time>
      </trkpt>
      <trkpt lat="47.27167" lon="-1.5373">
        <ele>15.8</ele>
        <time>2015-10-11T13:37:14Z</time>
      </trkpt>
      <trkpt lat="47.27151" lon="-1.5375">
        <ele>14.9</ele>
        <time>2015-10-11T13:37:21Z</time>
      </trkpt>
      <trkpt lat="47.27136" lon="-1.53768">
        <ele>14.6</ele>
        <time>2015-10-11T13:37:27Z</time>
      </trkpt>
      <trkpt lat="47.27121" lon="-1.53785">
        <ele>14.2</ele>
        <time>2015-10-11T13:37:34Z</time>
      </trkpt>
      <trkpt lat="47.27105" lon="-1.53798">
        <ele>14.3</ele>
        <time>2015-10-11T13:37:42Z</time>
      </trkpt>
      <trkpt lat="47.2709" lon="-1.53812">
        <ele>14.3</ele>
        <time>2015-10-11T13:37:48Z</time>
      </trkpt>
      <trkpt lat="47.27078" lon="-1.53834">
        <ele>14.3</ele>
        <time>2015-10-11T13:37:54Z</time>
      </trkpt>
      <trkpt lat="47.27065" lon="-1.53853">
        <ele>14.4</ele>
        <time>2015-10-11T13:38:00Z</time>
      </trkpt>
      <trkpt lat="47.27052" lon="-1.53874">
        <ele>13.6</ele>
        <time>2015-10-11T13:38:05Z</time>
      </trkpt>
      <trkpt lat="47.27036" lon="-1.53893">
        <ele>12.7</ele>
        <time>2015-10-11T13:38:10Z</time>
      </trkpt>
      <trkpt lat="47.27024" lon="-1.53914">
        <ele>12.3</ele>
        <time>2015-10-11T13:38:15Z</time>
      </trkpt>
      <trkpt lat="47.2701" lon="-1.53934">
        <ele>12</ele>
        <time>2015-10-11T13:38:24Z</time>
      </trkpt>
      <trkpt lat="47.2699" lon="-1.53943">
        <ele>11.9</ele>
        <time>2015-10-11T13:38:32Z</time>
      </trkpt>
      <trkpt lat="47.2697" lon="-1.53954">
        <ele>12.3</ele>
        <time>2015-10-11T13:38:40Z</time>
      </trkpt>
      <trkpt lat="47.2695" lon="-1.53958">
        <ele>12.1</ele>
        <time>2015-10-11T13:38:49Z</time>
      </trkpt>
      <trkpt lat="47.26932" lon="-1.53956">
        <ele>12.4</ele>
        <time>2015-10-11T13:38:55Z</time>
      </trkpt>
      <trkpt lat="47.26913" lon="-1.53963">
        <ele>12.5</ele>
        <time>2015-10-11T13:39:02Z</time>
      </trkpt>
      <trkpt lat="47.26894" lon="-1.5397">
        <ele>12.8</ele>
        <time>2015-10-11T13:39:10Z</time>
      </trkpt>
      <trkpt lat="47.26876" lon="-1.53988">
        <ele>12.8</ele>
        <time>2015-10-11T13:39:15Z</time>
      </trkpt>
      <trkpt lat="47.26861" lon="-1.54005">
        <ele>12.9</ele>
        <time>2015-10-11T13:39:21Z</time>
      </trkpt>
      <trkpt lat="47.26844" lon="-1.54022">
        <ele>12.7</ele>
        <time>2015-10-11T13:39:28Z</time>
      </trkpt>
      <trkpt lat="47.26826" lon="-1.54038">
        <ele>12.3</ele>
        <time>2015-10-11T13:39:35Z</time>
      </trkpt>
      <trkpt lat="47.2681" lon="-1.54053">
        <ele>12.4</ele>
        <time>2015-10-11T13:39:43Z</time>
      </trkpt>
      <trkpt lat="47.26793" lon="-1.54066">
        <ele>12.8</ele>
        <time>2015-10-11T13:39:52Z</time>
      </trkpt>
      <trkpt lat="47.26777" lon="-1.54083">
        <ele>13</ele>
        <time>2015-10-11T13:40:05Z</time>
      </trkpt>
      <trkpt lat="47.26763" lon="-1.54104">
        <ele>13.2</ele>
        <time>2015-10-11T13:40:12Z</time>
      </trkpt>
      <trkpt lat="47.26747" lon="-1.54119">
        <ele>13.1</ele>
        <time>2015-10-11T13:40:21Z</time>
      </trkpt>
      <trkpt lat="47.26729" lon="-1.54134">
        <ele>12.5</ele>
        <time>2015-10-11T13:40:28Z</time>
      </trkpt>
      <trkpt lat="47.26712" lon="-1.54146">
        <ele>13</ele>
        <time>2015-10-11T13:40:35Z</time>
      </trkpt>
      <trkpt lat="47.26697" lon="-1.54161">
        <ele>12.1</ele>
        <time>2015-10-11T13:40:44Z</time>
      </trkpt>
      <trkpt lat="47.2668" lon="-1.54177">
        <ele>10.9</ele>
        <time>2015-10-11T13:40:51Z</time>
      </trkpt>
      <trkpt lat="47.26666" lon="-1.542">
        <ele>10.6</ele>
        <time>2015-10-11T13:40:58Z</time>
      </trkpt>
      <trkpt lat="47.26656" lon="-1.54225">
        <ele>9.8</ele>
        <time>2015-10-11T13:41:04Z</time>
      </trkpt>
      <trkpt lat="47.26646" lon="-1.5425">
        <ele>9.3</ele>
        <time>2015-10-11T13:41:10Z</time>
      </trkpt>
      <trkpt lat="47.26639" lon="-1.54275">
        <ele>8.7</ele>
        <time>2015-10-11T13:41:16Z</time>
      </trkpt>
      <trkpt lat="47.26634" lon="-1.54301">
        <ele>10</ele>
        <time>2015-10-11T13:41:22Z</time>
      </trkpt>
      <trkpt lat="47.26637" lon="-1.54328">
        <ele>9.7</ele>
        <time>2015-10-11T13:41:29Z</time>
      </trkpt>
      <trkpt lat="47.26639" lon="-1.54359">
        <ele>9.6</ele>
        <time>2015-10-11T13:41:37Z</time>
      </trkpt>
      <trkpt lat="47.2662" lon="-1.54373">
        <ele>10.1</ele>
        <time>2015-10-11T13:41:45Z</time>
      </trkpt>
      <trkpt lat="47.266" lon="-1.54382">
        <ele>10.4</ele>
        <time>2015-10-11T13:41:54Z</time>
      </trkpt>
      <trkpt lat="47.2658" lon="-1.54389">
        <ele>10.6</ele>
        <time>2015-10-11T13:42:01Z</time>
      </trkpt>
      <trkpt lat="47.26562" lon="-1.54397">
        <ele>11.2</ele>
        <time>2015-10-11T13:42:07Z</time>
      </trkpt>
      <trkpt lat="47.26544" lon="-1.54406">
        <ele>11</ele>
        <time>2015-10-11T13:42:13Z</time>
      </trkpt>
      <trkpt lat="47.26525" lon="-1.54414">
        <ele>11.1</ele>
        <time>2015-10-11T13:42:19Z</time>
      </trkpt>
      <trkpt lat="47.26507" lon="-1.54425">
        <ele>10.5</ele>
        <time>2015-10-11T13:42:25Z</time>
      </trkpt>
      <trkpt lat="47.26488" lon="-1.54436">
        <ele>10.3</ele>
        <time>2015-10-11T13:42:31Z</time>
      </trkpt>
      <trkpt lat="47.26468" lon="-1.54444">
        <ele>10.1</ele>
        <time>2015-10-11T13:42:37Z</time>
      </trkpt>
      <trkpt lat="47.26449" lon="-1.5445">
        <ele>10.5</ele>
        <time>2015-10-11T13:42:44Z</time>
      </trkpt>
      <trkpt lat="47.26429" lon="-1.54444">
        <ele>11.3</ele>
        <time>2015-10-11T13:42:50Z</time>
      </trkpt>
      <trkpt lat="47.26411" lon="-1.54429">
        <ele>12.2</ele>
        <time>2015-10-11T13:42:56Z</time>
      </trkpt>
      <trkpt lat="47.26394" lon="-1.54415">
        <ele>11.9</ele>
        <time>2015-10-11T13:43:02Z</time>
      </trkpt>
      <trkpt lat="47.26378" lon="-1.54399">
        <ele>11.6</ele>
        <time>2015-10-11T13:43:07Z</time>
      </trkpt>
      <trkpt lat="47.26362" lon="-1.5438">
        <ele>11.7</ele>
        <time>2015-10-11T13:43:13Z</time>
      </trkpt>
      <trkpt lat="47.26345" lon="-1.54363">
        <ele>13.2</ele>
        <time>2015-10-11T13:43:19Z</time>
      </trkpt>
      <trkpt lat="47.26328" lon="-1.5435">
        <ele>14.1</ele>
        <time>2015-10-11T13:43:25Z</time>
      </trkpt>
      <trkpt lat="47.26311" lon="-1.54334">
        <ele>14.9</ele>
        <time>2015-10-11T13:43:33Z</time>
      </trkpt>
      <trkpt lat="47.26296" lon="-1.54318">
        <ele>15.2</ele>
        <time>2015-10-11T13:43:39Z</time>
      </trkpt>
      <trkpt lat="47.26278" lon="-1.54304">
        <ele>15.4</ele>
        <time>2015-10-11T13:43:46Z</time>
      </trkpt>
      <trkpt lat="47.2626" lon="-1.54296">
        <ele>15.7</ele>
        <time>2015-10-11T13:43:52Z</time>
      </trkpt>
      <trkpt lat="47.26242" lon="-1.5429">
        <ele>16.7</ele>
        <time>2015-10-11T13:43:59Z</time>
      </trkpt>
      <trkpt lat="47.26222" lon="-1.54282">
        <ele>16.4</ele>
        <time>2015-10-11T13:44:05Z</time>
      </trkpt>
      <trkpt lat="47.26202" lon="-1.54276">
        <ele>15.6</ele>
        <time>2015-10-11T13:44:12Z</time>
      </trkpt>
      <trkpt lat="47.26184" lon="-1.54272">
        <ele>14.5</ele>
        <time>2015-10-11T13:44:19Z</time>
      </trkpt>
      <trkpt lat="47.26163" lon="-1.54276">
        <ele>13.9</ele>
        <time>2015-10-11T13:44:26Z</time>
      </trkpt>
      <trkpt lat="47.26143" lon="-1.54277">
        <ele>14.6</ele>
        <time>2015-10-11T13:44:33Z</time>
      </trkpt>
      <trkpt lat="47.26125" lon="-1.54275">
        <ele>14.9</ele>
        <time>2015-10-11T13:44:39Z</time>
      </trkpt>
      <trkpt lat="47.26105" lon="-1.54275">
        <ele>15.7</ele>
        <time>2015-10-11T13:44:46Z</time>
      </trkpt>
      <trkpt lat="47.26086" lon="-1.54272">
        <ele>16.8</ele>
        <time>2015-10-11T13:44:52Z</time>
      </trkpt>
      <trkpt lat="47.26067" lon="-1.54269">
        <ele>17.3</ele>
        <time>2015-10-11T13:44:58Z</time>
      </trkpt>
      <trkpt lat="47.26049" lon="-1.54271">
        <ele>19.4</ele>
        <time>2015-10-11T13:45:05Z</time>
      </trkpt>
      <trkpt lat="47.26031" lon="-1.54278">
        <ele>21.4</ele>
        <time>2015-10-11T13:45:12Z</time>
      </trkpt>
      <trkpt lat="47.26012" lon="-1.54279">
        <ele>24.6</ele>
        <time>2015-10-11T13:45:19Z</time>
      </trkpt>
      <trkpt lat="47.25992" lon="-1.54278">
        <ele>27.5</ele>
        <time>2015-10-11T13:45:27Z</time>
      </trkpt>
      <trkpt lat="47.25974" lon="-1.54281">
        <ele>28.8</ele>
        <time>2015-10-11T13:45:33Z</time>
      </trkpt>
      <trkpt lat="47.25956" lon="-1.54286">
        <ele>29.5</ele>
        <time>2015-10-11T13:45:38Z</time>
      </trkpt>
      <trkpt lat="47.25935" lon="-1.54294">
        <ele>31.3</ele>
        <time>2015-10-11T13:45:45Z</time>
      </trkpt>
      <trkpt lat="47.25917" lon="-1.54288">
        <ele>33.1</ele>
        <time>2015-10-11T13:45:51Z</time>
      </trkpt>
      <trkpt lat="47.25899" lon="-1.54285">
        <ele>34.6</ele>
        <time>2015-10-11T13:45:56Z</time>
      </trkpt>
      <trkpt lat="47.2588" lon="-1.54277">
        <ele>35.5</ele>
        <time>2015-10-11T13:46:01Z</time>
      </trkpt>
      <trkpt lat="47.25862" lon="-1.54267">
        <ele>36.2</ele>
        <time>2015-10-11T13:46:06Z</time>
      </trkpt>
      <trkpt lat="47.25846" lon="-1.54253">
        <ele>36.8</ele>
        <time>2015-10-11T13:46:11Z</time>
      </trkpt>
      <trkpt lat="47.25831" lon="-1.54235">
        <ele>36.9</ele>
        <time>2015-10-11T13:46:18Z</time>
      </trkpt>
      <trkpt lat="47.25819" lon="-1.54213">
        <ele>36.7</ele>
        <time>2015-10-11T13:46:24Z</time>
      </trkpt>
      <trkpt lat="47.25805" lon="-1.5419">
        <ele>36.2</ele>
        <time>2015-10-11T13:46:31Z</time>
      </trkpt>
      <trkpt lat="47.25798" lon="-1.54165">
        <ele>36.5</ele>
        <time>2015-10-11T13:46:37Z</time>
      </trkpt>
      <trkpt lat="47.25788" lon="-1.54139">
        <ele>36.1</ele>
        <time>2015-10-11T13:46:44Z</time>
      </trkpt>
      <trkpt lat="47.25782" lon="-1.54113">
        <ele>35.3</ele>
        <time>2015-10-11T13:46:50Z</time>
      </trkpt>
      <trkpt lat="47.25781" lon="-1.54087">
        <ele>33.8</ele>
        <time>2015-10-11T13:46:57Z</time>
      </trkpt>
      <trkpt lat="47.25771" lon="-1.54059">
        <ele>32.9</ele>
        <time>2015-10-11T13:47:03Z</time>
      </trkpt>
      <trkpt lat="47.25759" lon="-1.54035">
        <ele>30.9</ele>
        <time>2015-10-11T13:47:09Z</time>
      </trkpt>
      <trkpt lat="47.25748" lon="-1.5401">
        <ele>29.2</ele>
        <time>2015-10-11T13:47:14Z</time>
      </trkpt>
      <trkpt lat="47.25736" lon="-1.53987">
        <ele>27.3</ele>
        <time>2015-10-11T13:47:19Z</time>
      </trkpt>
      <trkpt lat="47.25723" lon="-1.53964">
        <ele>26.4</ele>
        <time>2015-10-11T13:47:24Z</time>
      </trkpt>
      <trkpt lat="47.25706" lon="-1.5395">
        <ele>24.2</ele>
        <time>2015-10-11T13:47:29Z</time>
      </trkpt>
      <trkpt lat="47.25688" lon="-1.53946">
        <ele>19.3</ele>
        <time>2015-10-11T13:47:34Z</time>
      </trkpt>
      <trkpt lat="47.25668" lon="-1.53944">
        <ele>16.2</ele>
        <time>2015-10-11T13:47:39Z</time>
      </trkpt>
      <trkpt lat="47.2565" lon="-1.53951">
        <ele>13.9</ele>
        <time>2015-10-11T13:47:45Z</time>
      </trkpt>
      <trkpt lat="47.25634" lon="-1.53961">
        <ele>11.3</ele>
        <time>2015-10-11T13:47:52Z</time>
      </trkpt>
      <trkpt lat="47.25618" lon="-1.53976">
        <ele>9.6</ele>
        <time>2015-10-11T13:48:00Z</time>
      </trkpt>
      <trkpt lat="47.25604" lon="-1.53993">
        <ele>8.8</ele>
        <time>2015-10-11T13:48:06Z</time>
      </trkpt>
      <trkpt lat="47.25584" lon="-1.53994">
        <ele>7.2</ele>
        <time>2015-10-11T13:48:13Z</time>
      </trkpt>
      <trkpt lat="47.25565" lon="-1.54">
        <ele>5.5</ele>
        <time>2015-10-11T13:48:20Z</time>
      </trkpt>
      <trkpt lat="47.25545" lon="-1.54007">
        <ele>4.5</ele>
        <time>2015-10-11T13:48:27Z</time>
      </trkpt>
      <trkpt lat="47.25529" lon="-1.54022">
        <ele>4.8</ele>
        <time>2015-10-11T13:48:32Z</time>
      </trkpt>
      <trkpt lat="47.25511" lon="-1.54021">
        <ele>4.4</ele>
        <time>2015-10-11T13:48:38Z</time>
      </trkpt>
      <trkpt lat="47.25491" lon="-1.54018">
        <ele>4.2</ele>
        <time>2015-10-11T13:48:44Z</time>
      </trkpt>
      <trkpt lat="47.25473" lon="-1.54021">
        <ele>2.7</ele>
        <time>2015-10-11T13:48:54Z</time>
      </trkpt>
      <trkpt lat="47.25455" lon="-1.54018">
        <ele>0.9</ele>
        <time>2015-10-11T13:49:03Z</time>
      </trkpt>
      <trkpt lat="47.25437" lon="-1.5402">
        <ele>1.1</ele>
        <time>2015-10-11T13:49:09Z</time>
      </trkpt>
      <trkpt lat="47.25417" lon="-1.54024">
        <ele>2.6</ele>
        <time>2015-10-11T13:49:16Z</time>
      </trkpt>
      <trkpt lat="47.25397" lon="-1.54028">
        <ele>2.9</ele>
        <time>2015-10-11T13:49:23Z</time>
      </trkpt>
      <trkpt lat="47.25378" lon="-1.5403">
        <ele>3.5</ele>
        <time>2015-10-11T13:49:29Z</time>
      </trkpt>
      <trkpt lat="47.25357" lon="-1.54033">
        <ele>4.5</ele>
        <time>2015-10-11T13:49:36Z</time>
      </trkpt>
      <trkpt lat="47.25336" lon="-1.54036">
        <ele>4.4</ele>
        <time>2015-10-11T13:49:42Z</time>
      </trkpt>
      <trkpt lat="47.25316" lon="-1.54041">
        <ele>5.2</ele>
        <time>2015-10-11T13:49:47Z</time>
      </trkpt>
      <trkpt lat="47.25296" lon="-1.54047">
        <ele>5.4</ele>
        <time>2015-10-11T13:49:53Z</time>
      </trkpt>
      <trkpt lat="47.25278" lon="-1.54053">
        <ele>6.1</ele>
        <time>2015-10-11T13:49:59Z</time>
      </trkpt>
      <trkpt lat="47.25258" lon="-1.54054">
        <ele>8.1</ele>
        <time>2015-10-11T13:50:06Z</time>
      </trkpt>
      <trkpt lat="47.2524" lon="-1.54059">
        <ele>8.7</ele>
        <time>2015-10-11T13:50:12Z</time>
      </trkpt>
      <trkpt lat="47.25219" lon="-1.54064">
        <ele>8.5</ele>
        <time>2015-10-11T13:50:18Z</time>
      </trkpt>
      <trkpt lat="47.25201" lon="-1.54073">
        <ele>8.4</ele>
        <time>2015-10-11T13:50:24Z</time>
      </trkpt>
      <trkpt lat="47.25185" lon="-1.54086">
        <ele>7.6</ele>
        <time>2015-10-11T13:50:30Z</time>
      </trkpt>
      <trkpt lat="47.25174" lon="-1.54109">
        <ele>7.4</ele>
        <time>2015-10-11T13:50:36Z</time>
      </trkpt>
      <trkpt lat="47.25166" lon="-1.54134">
        <ele>6.4</ele>
        <time>2015-10-11T13:50:41Z</time>
      </trkpt>
      <trkpt lat="47.25164" lon="-1.54162">
        <ele>6.6</ele>
        <time>2015-10-11T13:50:47Z</time>
      </trkpt>
      <trkpt lat="47.25179" lon="-1.54182">
        <ele>6.1</ele>
        <time>2015-10-11T13:50:54Z</time>
      </trkpt>
      <trkpt lat="47.25194" lon="-1.54196">
        <ele>5.6</ele>
        <time>2015-10-11T13:51:01Z</time>
      </trkpt>
      <trkpt lat="47.25202" lon="-1.54225">
        <ele>7.4</ele>
        <time>2015-10-11T13:51:09Z</time>
      </trkpt>
      <trkpt lat="47.25201" lon="-1.54251">
        <ele>7</ele>
        <time>2015-10-11T13:51:15Z</time>
      </trkpt>
      <trkpt lat="47.25202" lon="-1.54279">
        <ele>6.4</ele>
        <time>2015-10-11T13:51:21Z</time>
      </trkpt>
      <trkpt lat="47.25207" lon="-1.54306">
        <ele>5.8</ele>
        <time>2015-10-11T13:51:29Z</time>
      </trkpt>
      <trkpt lat="47.25212" lon="-1.54332">
        <ele>4.6</ele>
        <time>2015-10-11T13:51:36Z</time>
      </trkpt>
      <trkpt lat="47.25215" lon="-1.54364">
        <ele>5.5</ele>
        <time>2015-10-11T13:51:43Z</time>
      </trkpt>
      <trkpt lat="47.25219" lon="-1.54395">
        <ele>6.7</ele>
        <time>2015-10-11T13:51:49Z</time>
      </trkpt>
      <trkpt lat="47.25221" lon="-1.54426">
        <ele>8.3</ele>
        <time>2015-10-11T13:51:56Z</time>
      </trkpt>
      <trkpt lat="47.25221" lon="-1.54455">
        <ele>8.5</ele>
        <time>2015-10-11T13:52:02Z</time>
      </trkpt>
      <trkpt lat="47.25222" lon="-1.54485">
        <ele>9.7</ele>
        <time>2015-10-11T13:52:08Z</time>
      </trkpt>
      <trkpt lat="47.25229" lon="-1.54511">
        <ele>9.3</ele>
        <time>2015-10-11T13:52:15Z</time>
      </trkpt>
      <trkpt lat="47.25234" lon="-1.5454">
        <ele>8.6</ele>
        <time>2015-10-11T13:52:22Z</time>
      </trkpt>
      <trkpt lat="47.2524" lon="-1.5457">
        <ele>8.4</ele>
        <time>2015-10-11T13:52:27Z</time>
      </trkpt>
      <trkpt lat="47.25243" lon="-1.54598">
        <ele>9.1</ele>
        <time>2015-10-11T13:52:33Z</time>
      </trkpt>
      <trkpt lat="47.25248" lon="-1.54625">
        <ele>9.7</ele>
        <time>2015-10-11T13:52:39Z</time>
      </trkpt>
      <trkpt lat="47.25251" lon="-1.54653">
        <ele>11</ele>
        <time>2015-10-11T13:52:45Z</time>
      </trkpt>
      <trkpt lat="47.25254" lon="-1.54682">
        <ele>11.3</ele>
        <time>2015-10-11T13:52:52Z</time>
      </trkpt>
      <trkpt lat="47.25257" lon="-1.54713">
        <ele>13.6</ele>
        <time>2015-10-11T13:52:58Z</time>
      </trkpt>
      <trkpt lat="47.25261" lon="-1.54742">
        <ele>13.5</ele>
        <time>2015-10-11T13:53:04Z</time>
      </trkpt>
      <trkpt lat="47.25265" lon="-1.54769">
        <ele>13.1</ele>
        <time>2015-10-11T13:53:10Z</time>
      </trkpt>
      <trkpt lat="47.25267" lon="-1.54798">
        <ele>11.6</ele>
        <time>2015-10-11T13:53:16Z</time>
      </trkpt>
      <trkpt lat="47.25263" lon="-1.54825">
        <ele>10.8</ele>
        <time>2015-10-11T13:53:22Z</time>
      </trkpt>
      <trkpt lat="47.25251" lon="-1.54851">
        <ele>11.5</ele>
        <time>2015-10-11T13:53:28Z</time>
      </trkpt>
      <trkpt lat="47.25236" lon="-1.54874">
        <ele>10.2</ele>
        <time>2015-10-11T13:53:34Z</time>
      </trkpt>
      <trkpt lat="47.25223" lon="-1.54895">
        <ele>8.3</ele>
        <time>2015-10-11T13:53:41Z</time>
      </trkpt>
      <trkpt lat="47.25209" lon="-1.54911">
        <ele>10.1</ele>
        <time>2015-10-11T13:53:49Z</time>
      </trkpt>
      <trkpt lat="47.25189" lon="-1.54925">
        <ele>11</ele>
        <time>2015-10-11T13:53:56Z</time>
      </trkpt>
      <trkpt lat="47.25172" lon="-1.54939">
        <ele>13.6</ele>
        <time>2015-10-11T13:54:02Z</time>
      </trkpt>
      <trkpt lat="47.25154" lon="-1.54951">
        <ele>13.3</ele>
        <time>2015-10-11T13:54:09Z</time>
      </trkpt>
      <trkpt lat="47.25137" lon="-1.54962">
        <ele>15.8</ele>
        <time>2015-10-11T13:54:16Z</time>
      </trkpt>
      <trkpt lat="47.25118" lon="-1.54973">
        <ele>18.2</ele>
        <time>2015-10-11T13:54:23Z</time>
      </trkpt>
      <trkpt lat="47.25101" lon="-1.54983">
        <ele>19.6</ele>
        <time>2015-10-11T13:54:29Z</time>
      </trkpt>
      <trkpt lat="47.25083" lon="-1.54995">
        <ele>21.1</ele>
        <time>2015-10-11T13:54:36Z</time>
      </trkpt>
      <trkpt lat="47.25063" lon="-1.55">
        <ele>23.8</ele>
        <time>2015-10-11T13:54:43Z</time>
      </trkpt>
      <trkpt lat="47.25044" lon="-1.55005">
        <ele>24.9</ele>
        <time>2015-10-11T13:54:50Z</time>
      </trkpt>
      <trkpt lat="47.25027" lon="-1.55012">
        <ele>26.1</ele>
        <time>2015-10-11T13:54:56Z</time>
      </trkpt>
      <trkpt lat="47.25009" lon="-1.55021">
        <ele>27.1</ele>
        <time>2015-10-11T13:55:02Z</time>
      </trkpt>
      <trkpt lat="47.24991" lon="-1.55033">
        <ele>27.4</ele>
        <time>2015-10-11T13:55:08Z</time>
      </trkpt>
      <trkpt lat="47.24972" lon="-1.55042">
        <ele>28.2</ele>
        <time>2015-10-11T13:55:14Z</time>
      </trkpt>
      <trkpt lat="47.24955" lon="-1.55052">
        <ele>27.3</ele>
        <time>2015-10-11T13:55:20Z</time>
      </trkpt>
      <trkpt lat="47.24938" lon="-1.55067">
        <ele>24.3</ele>
        <time>2015-10-11T13:55:27Z</time>
      </trkpt>
      <trkpt lat="47.24924" lon="-1.55083">
        <ele>24.6</ele>
        <time>2015-10-11T13:55:33Z</time>
      </trkpt>
      <trkpt lat="47.24909" lon="-1.551">
        <ele>25.2</ele>
        <time>2015-10-11T13:55:39Z</time>
      </trkpt>
      <trkpt lat="47.24893" lon="-1.55113">
        <ele>22.9</ele>
        <time>2015-10-11T13:55:46Z</time>
      </trkpt>
      <trkpt lat="47.24874" lon="-1.55127">
        <ele>22.3</ele>
        <time>2015-10-11T13:55:53Z</time>
      </trkpt>
      <trkpt lat="47.24858" lon="-1.55142">
        <ele>20.1</ele>
        <time>2015-10-11T13:55:58Z</time>
      </trkpt>
      <trkpt lat="47.24844" lon="-1.55161">
        <ele>17.8</ele>
        <time>2015-10-11T13:56:04Z</time>
      </trkpt>
      <trkpt lat="47.24843" lon="-1.55192">
        <ele>15.8</ele>
        <time>2015-10-11T13:56:10Z</time>
      </trkpt>
      <trkpt lat="47.2485" lon="-1.55217">
        <ele>15</ele>
        <time>2015-10-11T13:56:16Z</time>
      </trkpt>
      <trkpt lat="47.2486" lon="-1.55241">
        <ele>14.4</ele>
        <time>2015-10-11T13:56:23Z</time>
      </trkpt>
      <trkpt lat="47.24869" lon="-1.55265">
        <ele>13.9</ele>
        <time>2015-10-11T13:56:29Z</time>
      </trkpt>
      <trkpt lat="47.2488" lon="-1.5529">
        <ele>14.4</ele>
        <time>2015-10-11T13:56:36Z</time>
      </trkpt>
      <trkpt lat="47.24889" lon="-1.55318">
        <ele>17.8</ele>
        <time>2015-10-11T13:56:44Z</time>
      </trkpt>
      <trkpt lat="47.24899" lon="-1.55343">
        <ele>20.6</ele>
        <time>2015-10-11T13:56:51Z</time>
      </trkpt>
      <trkpt lat="47.24908" lon="-1.55368">
        <ele>24.7</ele>
        <time>2015-10-11T13:56:57Z</time>
      </trkpt>
      <trkpt lat="47.24917" lon="-1.55393">
        <ele>28.7</ele>
        <time>2015-10-11T13:57:04Z</time>
      </trkpt>
      <trkpt lat="47.24922" lon="-1.5542">
        <ele>29.7</ele>
        <time>2015-10-11T13:57:10Z</time>
      </trkpt>
      <trkpt lat="47.24916" lon="-1.55445">
        <ele>30.4</ele>
        <time>2015-10-11T13:57:17Z</time>
      </trkpt>
      <trkpt lat="47.24899" lon="-1.55458">
        <ele>30.9</ele>
        <time>2015-10-11T13:57:24Z</time>
      </trkpt>
      <trkpt lat="47.24881" lon="-1.55466">
        <ele>30.8</ele>
        <time>2015-10-11T13:57:31Z</time>
      </trkpt>
      <trkpt lat="47.2486" lon="-1.5547">
        <ele>30.2</ele>
        <time>2015-10-11T13:57:37Z</time>
      </trkpt>
      <trkpt lat="47.24839" lon="-1.55472">
        <ele>31.1</ele>
        <time>2015-10-11T13:57:44Z</time>
      </trkpt>
      <trkpt lat="47.24821" lon="-1.55472">
        <ele>31.3</ele>
        <time>2015-10-11T13:57:49Z</time>
      </trkpt>
      <trkpt lat="47.24803" lon="-1.55479">
        <ele>32.1</ele>
        <time>2015-10-11T13:57:54Z</time>
      </trkpt>
      <trkpt lat="47.24784" lon="-1.55489">
        <ele>31.6</ele>
        <time>2015-10-11T13:58:00Z</time>
      </trkpt>
      <trkpt lat="47.24763" lon="-1.55498">
        <ele>30.1</ele>
        <time>2015-10-11T13:58:06Z</time>
      </trkpt>
      <trkpt lat="47.24743" lon="-1.55503">
        <ele>29.5</ele>
        <time>2015-10-11T13:58:12Z</time>
      </trkpt>
      <trkpt lat="47.24725" lon="-1.55507">
        <ele>28.6</ele>
        <time>2015-10-11T13:58:18Z</time>
      </trkpt>
      <trkpt lat="47.24706" lon="-1.55511">
        <ele>27.5</ele>
        <time>2015-10-11T13:58:23Z</time>
      </trkpt>
      <trkpt lat="47.24688" lon="-1.5552">
        <ele>26.5</ele>
        <time>2015-10-11T13:58:29Z</time>
      </trkpt>
      <trkpt lat="47.24667" lon="-1.55529">
        <ele>25.9</ele>
        <time>2015-10-11T13:58:35Z</time>
      </trkpt>
      <trkpt lat="47.24647" lon="-1.55533">
        <ele>23.4</ele>
        <time>2015-10-11T13:58:42Z</time>
      </trkpt>
      <trkpt lat="47.24627" lon="-1.55537">
        <ele>22.4</ele>
        <time>2015-10-11T13:58:48Z</time>
      </trkpt>
      <trkpt lat="47.24607" lon="-1.55538">
        <ele>21.1</ele>
        <time>2015-10-11T13:58:55Z</time>
      </trkpt>
      <trkpt lat="47.24588" lon="-1.55542">
        <ele>18.9</ele>
        <time>2015-10-11T13:59:01Z</time>
      </trkpt>
      <trkpt lat="47.2457" lon="-1.55551">
        <ele>19.2</ele>
        <time>2015-10-11T13:59:08Z</time>
      </trkpt>
      <trkpt lat="47.24553" lon="-1.55564">
        <ele>20.6</ele>
        <time>2015-10-11T13:59:15Z</time>
      </trkpt>
      <trkpt lat="47.24541" lon="-1.55587">
        <ele>20</ele>
        <time>2015-10-11T13:59:22Z</time>
      </trkpt>
      <trkpt lat="47.24524" lon="-1.55595">
        <ele>19.1</ele>
        <time>2015-10-11T13:59:29Z</time>
      </trkpt>
      <trkpt lat="47.24506" lon="-1.55606">
        <ele>19.6</ele>
        <time>2015-10-11T13:59:35Z</time>
      </trkpt>
      <trkpt lat="47.24487" lon="-1.55611">
        <ele>19.7</ele>
        <time>2015-10-11T13:59:41Z</time>
      </trkpt>
      <trkpt lat="47.24467" lon="-1.55613">
        <ele>19.9</ele>
        <time>2015-10-11T13:59:48Z</time>
      </trkpt>
      <trkpt lat="47.24448" lon="-1.55619">
        <ele>19</ele>
        <time>2015-10-11T13:59:54Z</time>
      </trkpt>
      <trkpt lat="47.24428" lon="-1.55615">
        <ele>18.7</ele>
        <time>2015-10-11T14:00:00Z</time>
      </trkpt>
      <trkpt lat="47.24408" lon="-1.55612">
        <ele>17.7</ele>
        <time>2015-10-11T14:00:06Z</time>
      </trkpt>
      <trkpt lat="47.24388" lon="-1.55614">
        <ele>16.9</ele>
        <time>2015-10-11T14:00:12Z</time>
      </trkpt>
      <trkpt lat="47.24369" lon="-1.55616">
        <ele>18.1</ele>
        <time>2015-10-11T14:00:19Z</time>
      </trkpt>
      <trkpt lat="47.2435" lon="-1.55608">
        <ele>18.2</ele>
        <time>2015-10-11T14:00:25Z</time>
      </trkpt>
      <trkpt lat="47.24332" lon="-1.55608">
        <ele>17.1</ele>
        <time>2015-10-11T14:00:31Z</time>
      </trkpt>
      <trkpt lat="47.24312" lon="-1.55617">
        <ele>17.1</ele>
        <time>2015-10-11T14:00:38Z</time>
      </trkpt>
      <trkpt lat="47.24294" lon="-1.55616">
        <ele>17.3</ele>
        <time>2015-10-11T14:00:45Z</time>
      </trkpt>
      <trkpt lat="47.24276" lon="-1.5562">
        <ele>17.3</ele>
        <time>2015-10-11T14:00:51Z</time>
      </trkpt>
      <trkpt lat="47.24256" lon="-1.55617">
        <ele>17.1</ele>
        <time>2015-10-11T14:00:57Z</time>
      </trkpt>
      <trkpt lat="47.24236" lon="-1.55617">
        <ele>16.8</ele>
        <time>2015-10-11T14:01:04Z</time>
      </trkpt>
      <trkpt lat="47.24218" lon="-1.5562">
        <ele>17.1</ele>
        <time>2015-10-11T14:01:10Z</time>
      </trkpt>
      <trkpt lat="47.24198" lon="-1.55622">
        <ele>17.3</ele>
        <time>2015-10-11T14:01:18Z</time>
      </trkpt>
      <trkpt lat="47.24179" lon="-1.5563">
        <ele>17.2</ele>
        <time>2015-10-11T14:01:26Z</time>
      </trkpt>
      <trkpt lat="47.2416" lon="-1.55633">
        <ele>18.5</ele>
        <time>2015-10-11T14:01:32Z</time>
      </trkpt>
      <trkpt lat="47.2414" lon="-1.55636">
        <ele>19.9</ele>
        <time>2015-10-11T14:01:40Z</time>
      </trkpt>
      <trkpt lat="47.24119" lon="-1.5564">
        <ele>20.8</ele>
        <time>2015-10-11T14:01:47Z</time>
      </trkpt>
      <trkpt lat="47.24101" lon="-1.55646">
        <ele>20.6</ele>
        <time>2015-10-11T14:01:54Z</time>
      </trkpt>
      <trkpt lat="47.24082" lon="-1.55647">
        <ele>20.5</ele>
        <time>2015-10-11T14:02:00Z</time>
      </trkpt>
      <trkpt lat="47.24062" lon="-1.55646">
        <ele>20.1</ele>
        <time>2015-10-11T14:02:06Z</time>
      </trkpt>
      <trkpt lat="47.24043" lon="-1.55647">
        <ele>19.5</ele>
        <time>2015-10-11T14:02:13Z</time>
      </trkpt>
      <trkpt lat="47.24024" lon="-1.55647">
        <ele>20</ele>
        <time>2015-10-11T14:02:20Z</time>
      </trkpt>
      <trkpt lat="47.24003" lon="-1.55648">
        <ele>20.1</ele>
        <time>2015-10-11T14:02:27Z</time>
      </trkpt>
      <trkpt lat="47.23983" lon="-1.55651">
        <ele>20.3</ele>
        <time>2015-10-11T14:02:33Z</time>
      </trkpt>
      <trkpt lat="47.23963" lon="-1.5565">
        <ele>20.9</ele>
        <time>2015-10-11T14:02:40Z</time>
      </trkpt>
      <trkpt lat="47.23943" lon="-1.5565">
        <ele>20</ele>
        <time>2015-10-11T14:02:47Z</time>
      </trkpt>
      <trkpt lat="47.23925" lon="-1.55651">
        <ele>20.4</ele>
        <time>2015-10-11T14:02:53Z</time>
      </trkpt>
      <trkpt lat="47.23908" lon="-1.55644">
        <ele>20.8</ele>
        <time>2015-10-11T14:03:00Z</time>
      </trkpt>
      <trkpt lat="47.23888" lon="-1.55641">
        <ele>21.3</ele>
        <time>2015-10-11T14:03:07Z</time>
      </trkpt>
      <trkpt lat="47.23869" lon="-1.55646">
        <ele>21.1</ele>
        <time>2015-10-11T14:03:13Z</time>
      </trkpt>
      <trkpt lat="47.23849" lon="-1.55652">
        <ele>20.2</ele>
        <time>2015-10-11T14:03:20Z</time>
      </trkpt>
      <trkpt lat="47.23829" lon="-1.55656">
        <ele>19.4</ele>
        <time>2015-10-11T14:03:27Z</time>
      </trkpt>
      <trkpt lat="47.23809" lon="-1.55654">
        <ele>19.6</ele>
        <time>2015-10-11T14:03:34Z</time>
      </trkpt>
      <trkpt lat="47.23788" lon="-1.55652">
        <ele>20</ele>
        <time>2015-10-11T14:03:41Z</time>
      </trkpt>
      <trkpt lat="47.23768" lon="-1.55656">
        <ele>19.6</ele>
        <time>2015-10-11T14:03:48Z</time>
      </trkpt>
      <trkpt lat="47.23747" lon="-1.55655">
        <ele>20.6</ele>
        <time>2015-10-11T14:03:55Z</time>
      </trkpt>
      <trkpt lat="47.23729" lon="-1.55654">
        <ele>20</ele>
        <time>2015-10-11T14:04:02Z</time>
      </trkpt>
      <trkpt lat="47.2371" lon="-1.55657">
        <ele>19.8</ele>
        <time>2015-10-11T14:04:09Z</time>
      </trkpt>
      <trkpt lat="47.2369" lon="-1.55657">
        <ele>21.2</ele>
        <time>2015-10-11T14:04:16Z</time>
      </trkpt>
      <trkpt lat="47.23671" lon="-1.55656">
        <ele>22.3</ele>
        <time>2015-10-11T14:04:23Z</time>
      </trkpt>
      <trkpt lat="47.23651" lon="-1.55654">
        <ele>24.1</ele>
        <time>2015-10-11T14:04:30Z</time>
      </trkpt>
      <trkpt lat="47.23632" lon="-1.55653">
        <ele>24.9</ele>
        <time>2015-10-11T14:04:37Z</time>
      </trkpt>
      <trkpt lat="47.23612" lon="-1.55657">
        <ele>25.1</ele>
        <time>2015-10-11T14:04:44Z</time>
      </trkpt>
      <trkpt lat="47.23591" lon="-1.55656">
        <ele>25.4</ele>
        <time>2015-10-11T14:04:51Z</time>
      </trkpt>
      <trkpt lat="47.23571" lon="-1.55654">
        <ele>25.7</ele>
        <time>2015-10-11T14:04:57Z</time>
      </trkpt>
      <trkpt lat="47.23552" lon="-1.55651">
        <ele>26.1</ele>
        <time>2015-10-11T14:05:03Z</time>
      </trkpt>
      <trkpt lat="47.23532" lon="-1.5565">
        <ele>25.9</ele>
        <time>2015-10-11T14:05:10Z</time>
      </trkpt>
      <trkpt lat="47.23513" lon="-1.5565">
        <ele>26.2</ele>
        <time>2015-10-11T14:05:17Z</time>
      </trkpt>
      <trkpt lat="47.23495" lon="-1.55646">
        <ele>26.5</ele>
        <time>2015-10-11T14:05:23Z</time>
      </trkpt>
      <trkpt lat="47.23476" lon="-1.55643">
        <ele>25.8</ele>
        <time>2015-10-11T14:05:30Z</time>
      </trkpt>
      <trkpt lat="47.23458" lon="-1.55638">
        <ele>25.3</ele>
        <time>2015-10-11T14:05:35Z</time>
      </trkpt>
      <trkpt lat="47.2344" lon="-1.55628">
        <ele>23.9</ele>
        <time>2015-10-11T14:05:42Z</time>
      </trkpt>
      <trkpt lat="47.23423" lon="-1.55619">
        <ele>22.2</ele>
        <time>2015-10-11T14:05:54Z</time>
      </trkpt>
      <trkpt lat="47.23406" lon="-1.55604">
        <ele>19.9</ele>
        <time>2015-10-11T14:06:01Z</time>
      </trkpt>
      <trkpt lat="47.2339" lon="-1.55588">
        <ele>17.5</ele>
        <time>2015-10-11T14:06:07Z</time>
      </trkpt>
      <trkpt lat="47.23371" lon="-1.5557">
        <ele>17.9</ele>
        <time>2015-10-11T14:06:14Z</time>
      </trkpt>
      <trkpt lat="47.23355" lon="-1.55553">
        <ele>17.7</ele>
        <time>2015-10-11T14:06:20Z</time>
      </trkpt>
      <trkpt lat="47.23341" lon="-1.55532">
        <ele>18.2</ele>
        <time>2015-10-11T14:06:26Z</time>
      </trkpt>
      <trkpt lat="47.23335" lon="-1.55504">
        <ele>18.4</ele>
        <time>2015-10-11T14:06:33Z</time>
      </trkpt>
      <trkpt lat="47.23343" lon="-1.55478">
        <ele>13.4</ele>
        <time>2015-10-11T14:06:39Z</time>
      </trkpt>
      <trkpt lat="47.23352" lon="-1.55454">
        <ele>11.2</ele>
        <time>2015-10-11T14:06:45Z</time>
      </trkpt>
      <trkpt lat="47.23363" lon="-1.55429">
        <ele>10.7</ele>
        <time>2015-10-11T14:06:52Z</time>
      </trkpt>
      <trkpt lat="47.23372" lon="-1.55403">
        <ele>12.2</ele>
        <time>2015-10-11T14:06:59Z</time>
      </trkpt>
      <trkpt lat="47.23382" lon="-1.55376">
        <ele>12.6</ele>
        <time>2015-10-11T14:07:06Z</time>
      </trkpt>
      <trkpt lat="47.23393" lon="-1.55355">
        <ele>12.4</ele>
        <time>2015-10-11T14:07:12Z</time>
      </trkpt>
      <trkpt lat="47.23404" lon="-1.55331">
        <ele>11</ele>
        <time>2015-10-11T14:07:18Z</time>
      </trkpt>
      <trkpt lat="47.23399" lon="-1.55304">
        <ele>9.5</ele>
        <time>2015-10-11T14:07:27Z</time>
      </trkpt>
      <trkpt lat="47.23383" lon="-1.55289">
        <ele>8.3</ele>
        <time>2015-10-11T14:07:33Z</time>
      </trkpt>
      <trkpt lat="47.23369" lon="-1.55269">
        <ele>8.1</ele>
        <time>2015-10-11T14:07:41Z</time>
      </trkpt>
      <trkpt lat="47.2335" lon="-1.5526">
        <ele>11.3</ele>
        <time>2015-10-11T14:07:48Z</time>
      </trkpt>
      <trkpt lat="47.23334" lon="-1.55244">
        <ele>13.3</ele>
        <time>2015-10-11T14:07:55Z</time>
      </trkpt>
      <trkpt lat="47.23315" lon="-1.55238">
        <ele>15.3</ele>
        <time>2015-10-11T14:08:02Z</time>
      </trkpt>
      <trkpt lat="47.23296" lon="-1.55232">
        <ele>18.8</ele>
        <time>2015-10-11T14:08:09Z</time>
      </trkpt>
      <trkpt lat="47.23278" lon="-1.5523">
        <ele>19</ele>
        <time>2015-10-11T14:08:16Z</time>
      </trkpt>
      <trkpt lat="47.23258" lon="-1.55227">
        <ele>22.5</ele>
        <time>2015-10-11T14:08:23Z</time>
      </trkpt>
      <trkpt lat="47.23239" lon="-1.55223">
        <ele>24.4</ele>
        <time>2015-10-11T14:08:29Z</time>
      </trkpt>
      <trkpt lat="47.23221" lon="-1.55222">
        <ele>25.9</ele>
        <time>2015-10-11T14:08:34Z</time>
      </trkpt>
      <trkpt lat="47.23203" lon="-1.55221">
        <ele>27.7</ele>
        <time>2015-10-11T14:08:39Z</time>
      </trkpt>
      <trkpt lat="47.23184" lon="-1.55223">
        <ele>26.9</ele>
        <time>2015-10-11T14:08:45Z</time>
      </trkpt>
      <trkpt lat="47.23162" lon="-1.55227">
        <ele>27.4</ele>
        <time>2015-10-11T14:08:51Z</time>
      </trkpt>
      <trkpt lat="47.23145" lon="-1.55238">
        <ele>27.6</ele>
        <time>2015-10-11T14:08:57Z</time>
      </trkpt>
      <trkpt lat="47.23128" lon="-1.55255">
        <ele>28.6</ele>
        <time>2015-10-11T14:09:04Z</time>
      </trkpt>
      <trkpt lat="47.2311" lon="-1.55263">
        <ele>29.6</ele>
        <time>2015-10-11T14:09:09Z</time>
      </trkpt>
      <trkpt lat="47.23092" lon="-1.55276">
        <ele>29</ele>
        <time>2015-10-11T14:09:15Z</time>
      </trkpt>
      <trkpt lat="47.23079" lon="-1.55295">
        <ele>28.4</ele>
        <time>2015-10-11T14:09:20Z</time>
      </trkpt>
      <trkpt lat="47.23061" lon="-1.5531">
        <ele>27.6</ele>
        <time>2015-10-11T14:09:26Z</time>
      </trkpt>
      <trkpt lat="47.23046" lon="-1.55328">
        <ele>27.2</ele>
        <time>2015-10-11T14:09:32Z</time>
      </trkpt>
      <trkpt lat="47.2303" lon="-1.55347">
        <ele>26.3</ele>
        <time>2015-10-11T14:09:38Z</time>
      </trkpt>
      <trkpt lat="47.23019" lon="-1.55369">
        <ele>24.6</ele>
        <time>2015-10-11T14:09:44Z</time>
      </trkpt>
      <trkpt lat="47.23003" lon="-1.55389">
        <ele>24.3</ele>
        <time>2015-10-11T14:09:50Z</time>
      </trkpt>
      <trkpt lat="47.22981" lon="-1.55399">
        <ele>21.6</ele>
        <time>2015-10-11T14:09:56Z</time>
      </trkpt>
      <trkpt lat="47.2296" lon="-1.55402">
        <ele>21</ele>
        <time>2015-10-11T14:10:05Z</time>
      </trkpt>
      <trkpt lat="47.22948" lon="-1.55423">
        <ele>17.4</ele>
        <time>2015-10-11T14:10:10Z</time>
      </trkpt>
      <trkpt lat="47.22934" lon="-1.55445">
        <ele>13.3</ele>
        <time>2015-10-11T14:10:17Z</time>
      </trkpt>
      <trkpt lat="47.22914" lon="-1.55445">
        <ele>11.7</ele>
        <time>2015-10-11T14:10:23Z</time>
      </trkpt>
      <trkpt lat="47.22894" lon="-1.55452">
        <ele>10.1</ele>
        <time>2015-10-11T14:10:30Z</time>
      </trkpt>
      <trkpt lat="47.22883" lon="-1.55478">
        <ele>7.9</ele>
        <time>2015-10-11T14:10:36Z</time>
      </trkpt>
      <trkpt lat="47.22874" lon="-1.55507">
        <ele>5.4</ele>
        <time>2015-10-11T14:10:42Z</time>
      </trkpt>
      <trkpt lat="47.22864" lon="-1.5553">
        <ele>4.1</ele>
        <time>2015-10-11T14:10:49Z</time>
      </trkpt>
      <trkpt lat="47.22849" lon="-1.55548">
        <ele>3</ele>
        <time>2015-10-11T14:10:55Z</time>
      </trkpt>
      <trkpt lat="47.22832" lon="-1.55565">
        <ele>1.4</ele>
        <time>2015-10-11T14:11:01Z</time>
      </trkpt>
      <trkpt lat="47.22816" lon="-1.55579">
        <ele>-0.2</ele>
        <time>2015-10-11T14:11:07Z</time>
      </trkpt>
      <trkpt lat="47.22799" lon="-1.55588">
        <ele>-1.3</ele>
        <time>2015-10-11T14:11:12Z</time>
      </trkpt>
      <trkpt lat="47.22782" lon="-1.55599">
        <ele>-2.8</ele>
        <time>2015-10-11T14:11:18Z</time>
      </trkpt>
      <trkpt lat="47.22764" lon="-1.55617">
        <ele>-4.4</ele>
        <time>2015-10-11T14:11:25Z</time>
      </trkpt>
      <trkpt lat="47.22749" lon="-1.55634">
        <ele>-3.9</ele>
        <time>2015-10-11T14:11:33Z</time>
      </trkpt>
      <trkpt lat="47.22739" lon="-1.55608">
        <ele>-6.3</ele>
        <time>2015-10-11T14:11:43Z</time>
      </trkpt>
      <trkpt lat="47.22728" lon="-1.55584">
        <ele>-9.4</ele>
        <time>2015-10-11T14:11:52Z</time>
      </trkpt>
      <trkpt lat="47.22715" lon="-1.55564">
        <ele>-10.7</ele>
        <time>2015-10-11T14:11:58Z</time>
      </trkpt>
      <trkpt lat="47.22696" lon="-1.55554">
        <ele>-9.8</ele>
        <time>2015-10-11T14:12:03Z</time>
      </trkpt>
      <trkpt lat="47.22676" lon="-1.55558">
        <ele>-9.2</ele>
        <time>2015-10-11T14:12:10Z</time>
      </trkpt>
      <trkpt lat="47.22657" lon="-1.55569">
        <ele>-5.4</ele>
        <time>2015-10-11T14:12:17Z</time>
      </trkpt>
      <trkpt lat="47.22637" lon="-1.55572">
        <ele>-4</ele>
        <time>2015-10-11T14:12:23Z</time>
      </trkpt>
      <trkpt lat="47.22618" lon="-1.55569">
        <ele>-2.5</ele>
        <time>2015-10-11T14:12:29Z</time>
      </trkpt>
      <trkpt lat="47.22598" lon="-1.55567">
        <ele>-2</ele>
        <time>2015-10-11T14:12:36Z</time>
      </trkpt>
      <trkpt lat="47.22577" lon="-1.55562">
        <ele>-1.8</ele>
        <time>2015-10-11T14:12:43Z</time>
      </trkpt>
      <trkpt lat="47.22558" lon="-1.55551">
        <ele>-1.2</ele>
        <time>2015-10-11T14:12:49Z</time>
      </trkpt>
      <trkpt lat="47.2254" lon="-1.55538">
        <ele>1.4</ele>
        <time>2015-10-11T14:12:56Z</time>
      </trkpt>
      <trkpt lat="47.22523" lon="-1.55521">
        <ele>2.1</ele>
        <time>2015-10-11T14:13:03Z</time>
      </trkpt>
      <trkpt lat="47.2251" lon="-1.55503">
        <ele>2.3</ele>
        <time>2015-10-11T14:13:10Z</time>
      </trkpt>
      <trkpt lat="47.22498" lon="-1.55479">
        <ele>4.6</ele>
        <time>2015-10-11T14:13:16Z</time>
      </trkpt>
      <trkpt lat="47.22486" lon="-1.55457">
        <ele>6.7</ele>
        <time>2015-10-11T14:13:22Z</time>
      </trkpt>
      <trkpt lat="47.22475" lon="-1.55434">
        <ele>7.6</ele>
        <time>2015-10-11T14:13:29Z</time>
      </trkpt>
      <trkpt lat="47.22464" lon="-1.5541">
        <ele>7.8</ele>
        <time>2015-10-11T14:13:37Z</time>
      </trkpt>
      <trkpt lat="47.22449" lon="-1.55389">
        <ele>8</ele>
        <time>2015-10-11T14:13:44Z</time>
      </trkpt>
      <trkpt lat="47.22434" lon="-1.55374">
        <ele>9.2</ele>
        <time>2015-10-11T14:13:49Z</time>
      </trkpt>
      <trkpt lat="47.22415" lon="-1.5536">
        <ele>8.9</ele>
        <time>2015-10-11T14:13:55Z</time>
      </trkpt>
      <trkpt lat="47.22397" lon="-1.55353">
        <ele>7.9</ele>
        <time>2015-10-11T14:14:01Z</time>
      </trkpt>
      <trkpt lat="47.22377" lon="-1.55347">
        <ele>6.5</ele>
        <time>2015-10-11T14:14:07Z</time>
      </trkpt>
      <trkpt lat="47.22356" lon="-1.55339">
        <ele>4.4</ele>
        <time>2015-10-11T14:14:14Z</time>
      </trkpt>
      <trkpt lat="47.22335" lon="-1.55332">
        <ele>4.5</ele>
        <time>2015-10-11T14:14:20Z</time>
      </trkpt>
      <trkpt lat="47.22316" lon="-1.55325">
        <ele>4.9</ele>
        <time>2015-10-11T14:14:25Z</time>
      </trkpt>
      <trkpt lat="47.22297" lon="-1.55321">
        <ele>4.4</ele>
        <time>2015-10-11T14:14:30Z</time>
      </trkpt>
      <trkpt lat="47.22288" lon="-1.55294">
        <ele>3.8</ele>
        <time>2015-10-11T14:14:36Z</time>
      </trkpt>
      <trkpt lat="47.22291" lon="-1.55264">
        <ele>2.5</ele>
        <time>2015-10-11T14:14:43Z</time>
      </trkpt>
      <trkpt lat="47.22287" lon="-1.55235">
        <ele>0.3</ele>
        <time>2015-10-11T14:14:49Z</time>
      </trkpt>
      <trkpt lat="47.22272" lon="-1.55214">
        <ele>-0.4</ele>
        <time>2015-10-11T14:14:55Z</time>
      </trkpt>
      <trkpt lat="47.22254" lon="-1.55204">
        <ele>0.4</ele>
        <time>2015-10-11T14:15:01Z</time>
      </trkpt>
      <trkpt lat="47.22237" lon="-1.55193">
        <ele>1.6</ele>
        <time>2015-10-11T14:15:06Z</time>
      </trkpt>
      <trkpt lat="47.22216" lon="-1.55179">
        <ele>2.2</ele>
        <time>2015-10-11T14:15:11Z</time>
      </trkpt>
      <trkpt lat="47.22201" lon="-1.55163">
        <ele>2.3</ele>
        <time>2015-10-11T14:15:16Z</time>
      </trkpt>
      <trkpt lat="47.22186" lon="-1.55144">
        <ele>3.1</ele>
        <time>2015-10-11T14:15:23Z</time>
      </trkpt>
      <trkpt lat="47.22171" lon="-1.55121">
        <ele>3.2</ele>
        <time>2015-10-11T14:15:29Z</time>
      </trkpt>
      <trkpt lat="47.22152" lon="-1.5511">
        <ele>2.4</ele>
        <time>2015-10-11T14:15:35Z</time>
      </trkpt>
      <trkpt lat="47.22134" lon="-1.551">
        <ele>2.4</ele>
        <time>2015-10-11T14:15:39Z</time>
      </trkpt>
      <trkpt lat="47.22117" lon="-1.55084">
        <ele>1.3</ele>
        <time>2015-10-11T14:15:44Z</time>
      </trkpt>
      <trkpt lat="47.22101" lon="-1.55064">
        <ele>0.2</ele>
        <time>2015-10-11T14:15:50Z</time>
      </trkpt>
      <trkpt lat="47.22085" lon="-1.55045">
        <ele>-1.5</ele>
        <time>2015-10-11T14:15:56Z</time>
      </trkpt>
      <trkpt lat="47.2207" lon="-1.55028">
        <ele>-2.1</ele>
        <time>2015-10-11T14:16:01Z</time>
      </trkpt>
      <trkpt lat="47.22056" lon="-1.5501">
        <ele>-2.9</ele>
        <time>2015-10-11T14:16:06Z</time>
      </trkpt>
      <trkpt lat="47.22038" lon="-1.55">
        <ele>-4.2</ele>
        <time>2015-10-11T14:16:12Z</time>
      </trkpt>
      <trkpt lat="47.22019" lon="-1.54986">
        <ele>-6.2</ele>
        <time>2015-10-11T14:16:19Z</time>
      </trkpt>
      <trkpt lat="47.22" lon="-1.54977">
        <ele>-7.1</ele>
        <time>2015-10-11T14:16:26Z</time>
      </trkpt>
      <trkpt lat="47.21983" lon="-1.54988">
        <ele>-6.5</ele>
        <time>2015-10-11T14:16:32Z</time>
      </trkpt>
      <trkpt lat="47.2197" lon="-1.55009">
        <ele>-4.7</ele>
        <time>2015-10-11T14:16:37Z</time>
      </trkpt>
      <trkpt lat="47.21949" lon="-1.55011">
        <ele>1.5</ele>
        <time>2015-10-11T14:16:42Z</time>
      </trkpt>
      <trkpt lat="47.21935" lon="-1.54992">
        <ele>5.2</ele>
        <time>2015-10-11T14:16:46Z</time>
      </trkpt>
      <trkpt lat="47.21921" lon="-1.54973">
        <ele>7.5</ele>
        <time>2015-10-11T14:16:50Z</time>
      </trkpt>
      <trkpt lat="47.21905" lon="-1.54959">
        <ele>9</ele>
        <time>2015-10-11T14:16:55Z</time>
      </trkpt>
      <trkpt lat="47.21887" lon="-1.54948">
        <ele>9.9</ele>
        <time>2015-10-11T14:17:01Z</time>
      </trkpt>
      <trkpt lat="47.21872" lon="-1.54932">
        <ele>10.8</ele>
        <time>2015-10-11T14:17:06Z</time>
      </trkpt>
      <trkpt lat="47.21855" lon="-1.54916">
        <ele>12.5</ele>
        <time>2015-10-11T14:17:11Z</time>
      </trkpt>
      <trkpt lat="47.21841" lon="-1.54901">
        <ele>13.1</ele>
        <time>2015-10-11T14:17:17Z</time>
      </trkpt>
    </trkseg>
  </trk>
</gpx>